GEC477 PHNL-NZAA
Flight info
| Callsign | GEC477 |
|---|---|
| Flight time | 8h 45m |
| Altitude | 34000 |
| Route | OPIHI3 CARRP A579 CHEEM DCT 15N162W/N0484F360 10N164W 05N166W 00N168W 05S170W/N0477F380 10S173W 15S175W 20S177W 25S179W/N0469F400 30S179E DCT TARIB |
| Aircraft | MD11/H-SDE1E2E3FGHIJ2J3J4J5M1RWXY/LB1D1 |
Departure
| Time | 2026-05-04 12:56 |
|---|---|
| Airport | Daniel K. Inouye International Airport (PHNL) |
Arrival
| Time | 2026-05-04 21:42 |
|---|---|
| Airport | Auckland International Airport (NZAA) |
| Time | Latitude | Longitude | Altitude | Speed | Heading |
|---|---|---|---|---|---|
| 2026-05-04 12:25 | 21.31779 | -157.91694 | 26 ft | 0 kts | 145° |
| 2026-05-04 12:48 | 21.31797 | -157.91707 | 25 ft | 4 kts | 145° |
| 2026-05-04 12:48 | 21.31819 | -157.91724 | 24 ft | 4 kts | 146° |
| 2026-05-04 12:48 | 21.31840 | -157.91740 | 25 ft | 4 kts | 148° |
| 2026-05-04 12:49 | 21.31858 | -157.91747 | 22 ft | 4 kts | 185° |
| 2026-05-04 12:49 | 21.31876 | -157.91742 | 24 ft | 4 kts | 232° |
| 2026-05-04 12:49 | 21.31889 | -157.91721 | 23 ft | 2 kts | 233° |
| 2026-05-04 12:49 | 21.31890 | -157.91720 | 22 ft | 0 kts | 233° |
| 2026-05-04 12:52 | 21.31882 | -157.91731 | 25 ft | 4 kts | 232° |
| 2026-05-04 12:52 | 21.31854 | -157.91768 | 25 ft | 9 kts | 230° |
| 2026-05-04 12:53 | 21.31805 | -157.91833 | 21 ft | 14 kts | 232° |
| 2026-05-04 12:53 | 21.31741 | -157.91926 | 19 ft | 17 kts | 234° |
| 2026-05-04 12:53 | 21.31661 | -157.92042 | 18 ft | 22 kts | 232° |
| 2026-05-04 12:53 | 21.31560 | -157.92186 | 15 ft | 26 kts | 233° |
| 2026-05-04 12:54 | 21.31446 | -157.92350 | 15 ft | 29 kts | 233° |
| 2026-05-04 12:54 | 21.31350 | -157.92481 | 18 ft | 12 kts | 225° |
| 2026-05-04 12:54 | 21.31341 | -157.92490 | 16 ft | 2 kts | 229° |
| 2026-05-04 12:54 | 21.31321 | -157.92521 | 18 ft | 7 kts | 235° |
| 2026-05-04 12:55 | 21.31292 | -157.92572 | 20 ft | 9 kts | 248° |
| 2026-05-04 12:55 | 21.31311 | -157.92631 | 19 ft | 9 kts | 314° |
| 2026-05-04 12:55 | 21.31366 | -157.92679 | 21 ft | 11 kts | 324° |
| 2026-05-04 12:55 | 21.31427 | -157.92664 | 20 ft | 10 kts | 47° |
| 2026-05-04 12:56 | 21.31518 | -157.92541 | 17 ft | 53 kts | 52° |
| 2026-05-04 12:56 | 21.31926 | -157.91964 | 19 ft | 139 kts | 53° |
| 2026-05-04 12:56 | 21.32632 | -157.90955 | 215 ft | 185 kts | 52° |
| 2026-05-04 12:56 | 21.33420 | -157.89833 | 1159 ft | 185 kts | 51° |
| 2026-05-04 12:57 | 21.34042 | -157.88696 | 2422 ft | 175 kts | 73° |
| 2026-05-04 12:57 | 21.34059 | -157.87421 | 3508 ft | 174 kts | 105° |
| 2026-05-04 12:57 | 21.33379 | -157.86336 | 4457 ft | 182 kts | 138° |
| 2026-05-04 12:57 | 21.32168 | -157.85884 | 5321 ft | 193 kts | 179° |
| 2026-05-04 12:58 | 21.30891 | -157.86366 | 6138 ft | 199 kts | 211° |
| 2026-05-04 12:58 | 21.29702 | -157.87211 | 6708 ft | 216 kts | 208° |
| 2026-05-04 12:58 | 21.28806 | -157.87770 | 6865 ft | 233 kts | 207° |
| 2026-05-04 12:58 | 21.27337 | -157.88678 | 7099 ft | 255 kts | 208° |
| 2026-05-04 12:59 | 21.25701 | -157.89623 | 7311 ft | 279 kts | 201° |
| 2026-05-04 12:59 | 21.23823 | -157.90413 | 7525 ft | 294 kts | 212° |
| 2026-05-04 12:59 | 21.22173 | -157.91672 | 8475 ft | 294 kts | 215° |
| 2026-05-04 12:59 | 21.20484 | -157.92965 | 8990 ft | 300 kts | 214° |
| 2026-05-04 13:00 | 21.18761 | -157.94223 | 9867 ft | 301 kts | 213° |
| 2026-05-04 13:00 | 21.16963 | -157.95486 | 10233 ft | 321 kts | 212° |
| 2026-05-04 13:00 | 21.15002 | -157.96819 | 10360 ft | 347 kts | 211° |
| 2026-05-04 13:00 | 21.12889 | -157.98225 | 10726 ft | 363 kts | 211° |
| 2026-05-04 13:01 | 21.10722 | -157.99649 | 11470 ft | 367 kts | 211° |
| 2026-05-04 13:01 | 21.08582 | -158.01154 | 12219 ft | 370 kts | 214° |
| 2026-05-04 13:01 | 21.06485 | -158.02772 | 12940 ft | 374 kts | 216° |
| 2026-05-04 13:01 | 21.04394 | -158.04443 | 13701 ft | 377 kts | 217° |
| 2026-05-04 13:02 | 21.02287 | -158.06138 | 14310 ft | 381 kts | 217° |
| 2026-05-04 13:02 | 21.00155 | -158.07844 | 14935 ft | 384 kts | 217° |
| 2026-05-04 13:02 | 20.98002 | -158.09561 | 15477 ft | 388 kts | 217° |
| 2026-05-04 13:02 | 20.95823 | -158.11297 | 16018 ft | 393 kts | 217° |
| 2026-05-04 13:03 | 20.93623 | -158.13050 | 16545 ft | 397 kts | 218° |
| 2026-05-04 13:03 | 20.91430 | -158.14797 | 17073 ft | 400 kts | 218° |
| 2026-05-04 13:03 | 20.89187 | -158.16584 | 17588 ft | 404 kts | 218° |
| 2026-05-04 13:03 | 20.86928 | -158.18383 | 18086 ft | 407 kts | 218° |
| 2026-05-04 13:04 | 20.84643 | -158.20201 | 18561 ft | 410 kts | 218° |
| 2026-05-04 13:04 | 20.82354 | -158.22023 | 19005 ft | 412 kts | 218° |
| 2026-05-04 13:04 | 20.80046 | -158.23858 | 19451 ft | 413 kts | 219° |
| 2026-05-04 13:04 | 20.77736 | -158.25697 | 19843 ft | 416 kts | 218° |
| 2026-05-04 13:05 | 20.75409 | -158.27548 | 20261 ft | 417 kts | 219° |
| 2026-05-04 13:05 | 20.73069 | -158.29407 | 20617 ft | 421 kts | 219° |
| 2026-05-04 13:05 | 20.70712 | -158.31279 | 21064 ft | 423 kts | 219° |
| 2026-05-04 13:05 | 20.68346 | -158.33157 | 21465 ft | 425 kts | 219° |
| 2026-05-04 13:06 | 20.65964 | -158.35046 | 21908 ft | 428 kts | 219° |
| 2026-05-04 13:06 | 20.63566 | -158.36949 | 22333 ft | 430 kts | 219° |
| 2026-05-04 13:06 | 20.61159 | -158.38858 | 22760 ft | 433 kts | 219° |
| 2026-05-04 13:06 | 20.58736 | -158.40781 | 23227 ft | 435 kts | 219° |
| 2026-05-04 13:07 | 20.56294 | -158.42716 | 23663 ft | 438 kts | 219° |
| 2026-05-04 13:07 | 20.53842 | -158.44658 | 24067 ft | 441 kts | 218° |
| 2026-05-04 13:07 | 20.51371 | -158.46614 | 24463 ft | 443 kts | 219° |
| 2026-05-04 13:07 | 20.48885 | -158.48582 | 24869 ft | 446 kts | 219° |
| 2026-05-04 13:08 | 20.46387 | -158.50559 | 25292 ft | 448 kts | 218° |
| 2026-05-04 13:08 | 20.43883 | -158.52539 | 25668 ft | 451 kts | 219° |
| 2026-05-04 13:08 | 20.41352 | -158.54539 | 26067 ft | 455 kts | 218° |
| 2026-05-04 13:08 | 20.38800 | -158.56555 | 26443 ft | 458 kts | 219° |
| 2026-05-04 13:09 | 20.36232 | -158.58580 | 26844 ft | 461 kts | 218° |
| 2026-05-04 13:09 | 20.33681 | -158.60587 | 27243 ft | 463 kts | 218° |
| 2026-05-04 13:09 | 20.31043 | -158.62662 | 27648 ft | 466 kts | 218° |
| 2026-05-04 13:09 | 20.28464 | -158.64693 | 28028 ft | 469 kts | 218° |
| 2026-05-04 13:10 | 20.25829 | -158.66768 | 28416 ft | 471 kts | 218° |
| 2026-05-04 13:10 | 20.23182 | -158.68854 | 28798 ft | 474 kts | 218° |
| 2026-05-04 13:10 | 20.20522 | -158.70948 | 29179 ft | 477 kts | 218° |
| 2026-05-04 13:10 | 20.17846 | -158.73055 | 29548 ft | 480 kts | 218° |
| 2026-05-04 13:11 | 20.15161 | -158.75169 | 29937 ft | 481 kts | 218° |
| 2026-05-04 13:11 | 20.12467 | -158.77287 | 30374 ft | 480 kts | 218° |
| 2026-05-04 13:11 | 20.09787 | -158.79394 | 30831 ft | 478 kts | 218° |
| 2026-05-04 13:11 | 20.07115 | -158.81493 | 31290 ft | 476 kts | 218° |
| 2026-05-04 13:12 | 20.04459 | -158.83578 | 31751 ft | 473 kts | 219° |
| 2026-05-04 13:12 | 20.01816 | -158.85654 | 32195 ft | 471 kts | 219° |
| 2026-05-04 13:12 | 19.99187 | -158.87717 | 32624 ft | 469 kts | 219° |
| 2026-05-04 13:12 | 19.96570 | -158.89771 | 32995 ft | 467 kts | 219° |
| 2026-05-04 13:13 | 19.93957 | -158.91820 | 33377 ft | 464 kts | 219° |
| 2026-05-04 13:13 | 19.91361 | -158.93855 | 33761 ft | 463 kts | 219° |
| 2026-05-04 13:13 | 19.88771 | -158.95885 | 33906 ft | 462 kts | 219° |
| 2026-05-04 13:14 | 19.83601 | -158.99935 | 33929 ft | 464 kts | 219° |
| 2026-05-04 13:14 | 19.78402 | -159.04004 | 33934 ft | 464 kts | 219° |
| 2026-05-04 13:15 | 19.73202 | -159.08069 | 33934 ft | 464 kts | 219° |
| 2026-05-04 13:15 | 19.67996 | -159.12131 | 33934 ft | 464 kts | 219° |
| 2026-05-04 13:16 | 19.62783 | -159.16189 | 33934 ft | 464 kts | 219° |
| 2026-05-04 13:16 | 19.57580 | -159.20242 | 33933 ft | 464 kts | 219° |
| 2026-05-04 13:17 | 19.52377 | -159.24296 | 33933 ft | 464 kts | 219° |
| 2026-05-04 13:17 | 19.47176 | -159.28346 | 33934 ft | 464 kts | 219° |
| 2026-05-04 13:18 | 19.41973 | -159.32393 | 33931 ft | 464 kts | 219° |
| 2026-05-04 13:18 | 19.36769 | -159.36439 | 33931 ft | 464 kts | 219° |
| 2026-05-04 13:19 | 19.31565 | -159.40480 | 33929 ft | 464 kts | 219° |
| 2026-05-04 13:19 | 19.26362 | -159.44518 | 33911 ft | 464 kts | 218° |
| 2026-05-04 13:20 | 19.21133 | -159.48512 | 33926 ft | 464 kts | 217° |
| 2026-05-04 13:20 | 19.15739 | -159.52275 | 33929 ft | 465 kts | 215° |
| 2026-05-04 13:21 | 19.10333 | -159.55948 | 33935 ft | 465 kts | 215° |
| 2026-05-04 13:21 | 19.04904 | -159.59650 | 33929 ft | 464 kts | 215° |
| 2026-05-04 13:22 | 18.99481 | -159.63362 | 33920 ft | 464 kts | 215° |
| 2026-05-04 13:22 | 18.94060 | -159.67074 | 33920 ft | 464 kts | 215° |
| 2026-05-04 13:23 | 18.88648 | -159.70777 | 33922 ft | 463 kts | 215° |
| 2026-05-04 13:23 | 18.83250 | -159.74467 | 33926 ft | 463 kts | 215° |
| 2026-05-04 13:24 | 18.77840 | -159.78163 | 33923 ft | 463 kts | 215° |
| 2026-05-04 13:24 | 18.72427 | -159.81858 | 33926 ft | 463 kts | 215° |
| 2026-05-04 13:25 | 18.64311 | -159.87392 | 33917 ft | 463 kts | 215° |
| 2026-05-04 13:25 | 18.58903 | -159.91076 | 33918 ft | 463 kts | 215° |
| 2026-05-04 13:26 | 18.53498 | -159.94755 | 33922 ft | 462 kts | 215° |
| 2026-05-04 13:26 | 18.48088 | -159.98428 | 33921 ft | 462 kts | 215° |
| 2026-05-04 13:27 | 18.42715 | -160.02072 | 33919 ft | 462 kts | 215° |
| 2026-05-04 13:27 | 18.37306 | -160.05744 | 33904 ft | 462 kts | 215° |
| 2026-05-04 13:28 | 18.31913 | -160.09403 | 33915 ft | 461 kts | 215° |
| 2026-05-04 13:28 | 18.26528 | -160.13055 | 33914 ft | 460 kts | 215° |
| 2026-05-04 13:29 | 18.21115 | -160.16659 | 33914 ft | 461 kts | 213° |
| 2026-05-04 13:29 | 18.15529 | -160.19999 | 33911 ft | 462 kts | 211° |
| 2026-05-04 13:30 | 18.09896 | -160.23259 | 33910 ft | 462 kts | 211° |
| 2026-05-04 13:30 | 18.04277 | -160.26524 | 33908 ft | 460 kts | 211° |
| 2026-05-04 13:31 | 17.98690 | -160.29786 | 33910 ft | 459 kts | 211° |
| 2026-05-04 13:31 | 17.93107 | -160.33048 | 33905 ft | 459 kts | 211° |
| 2026-05-04 13:32 | 17.87564 | -160.36285 | 33904 ft | 459 kts | 211° |
| 2026-05-04 13:32 | 17.81978 | -160.39544 | 33905 ft | 459 kts | 211° |
| 2026-05-04 13:33 | 17.76397 | -160.42798 | 33902 ft | 459 kts | 211° |
| 2026-05-04 13:33 | 17.70813 | -160.46051 | 33902 ft | 459 kts | 211° |
| 2026-05-04 13:34 | 17.65228 | -160.49302 | 33900 ft | 459 kts | 211° |
| 2026-05-04 13:34 | 17.59644 | -160.52550 | 33900 ft | 459 kts | 211° |
| 2026-05-04 13:35 | 17.51268 | -160.57417 | 33902 ft | 459 kts | 211° |
| 2026-05-04 13:36 | 17.45716 | -160.60636 | 33895 ft | 459 kts | 211° |
| 2026-05-04 13:36 | 17.40108 | -160.63883 | 33892 ft | 457 kts | 211° |
| 2026-05-04 13:37 | 17.34586 | -160.67083 | 33902 ft | 457 kts | 211° |
| 2026-05-04 13:37 | 17.29030 | -160.70303 | 33889 ft | 457 kts | 211° |
| 2026-05-04 13:38 | 17.23469 | -160.73523 | 33890 ft | 457 kts | 211° |
| 2026-05-04 13:38 | 17.17919 | -160.76734 | 33892 ft | 457 kts | 211° |
| 2026-05-04 13:39 | 17.12361 | -160.79948 | 33890 ft | 456 kts | 211° |
| 2026-05-04 13:39 | 17.06815 | -160.83152 | 33895 ft | 455 kts | 211° |
| 2026-05-04 13:40 | 17.01274 | -160.86352 | 33893 ft | 455 kts | 211° |
| 2026-05-04 13:40 | 16.95726 | -160.89553 | 33891 ft | 456 kts | 211° |
| 2026-05-04 13:41 | 16.90175 | -160.92754 | 33887 ft | 456 kts | 211° |
| 2026-05-04 13:41 | 16.84659 | -160.95933 | 33898 ft | 456 kts | 211° |
| 2026-05-04 13:42 | 16.76346 | -161.00718 | 33888 ft | 454 kts | 212° |
| 2026-05-04 13:42 | 16.70806 | -161.03898 | 33883 ft | 454 kts | 212° |
| 2026-05-04 13:43 | 16.65271 | -161.07076 | 33887 ft | 454 kts | 212° |
| 2026-05-04 13:43 | 16.59736 | -161.10255 | 33879 ft | 454 kts | 212° |
| 2026-05-04 13:44 | 16.54201 | -161.13432 | 33882 ft | 454 kts | 212° |
| 2026-05-04 13:44 | 16.48680 | -161.16599 | 33875 ft | 451 kts | 212° |
| 2026-05-04 13:45 | 16.43187 | -161.19748 | 33876 ft | 450 kts | 212° |
| 2026-05-04 13:45 | 16.37699 | -161.22894 | 33880 ft | 450 kts | 212° |
| 2026-05-04 13:46 | 16.32212 | -161.26036 | 33871 ft | 450 kts | 212° |
| 2026-05-04 13:46 | 16.26725 | -161.29176 | 33872 ft | 450 kts | 212° |
| 2026-05-04 13:47 | 16.22166 | -161.31783 | 33870 ft | 450 kts | 212° |
| 2026-05-04 13:47 | 16.16686 | -161.34915 | 33862 ft | 449 kts | 213° |
| 2026-05-04 13:48 | 16.10326 | -161.38548 | 33869 ft | 448 kts | 213° |
| 2026-05-04 13:48 | 16.04855 | -161.41671 | 33868 ft | 448 kts | 213° |
| 2026-05-04 13:49 | 16.00308 | -161.44261 | 33866 ft | 448 kts | 213° |
| 2026-05-04 13:49 | 15.94836 | -161.47375 | 33866 ft | 448 kts | 213° |
| 2026-05-04 13:50 | 15.89361 | -161.50491 | 33864 ft | 448 kts | 213° |
| 2026-05-04 13:50 | 15.83889 | -161.53607 | 33863 ft | 449 kts | 213° |
| 2026-05-04 13:51 | 15.78407 | -161.56727 | 33861 ft | 449 kts | 213° |
| 2026-05-04 13:51 | 15.72921 | -161.59847 | 33861 ft | 449 kts | 213° |
| 2026-05-04 13:52 | 15.64693 | -161.64522 | 33858 ft | 450 kts | 213° |
| 2026-05-04 13:53 | 15.59201 | -161.67640 | 33856 ft | 450 kts | 213° |
| 2026-05-04 13:53 | 15.53725 | -161.70748 | 33851 ft | 450 kts | 213° |
| 2026-05-04 13:54 | 15.45513 | -161.75404 | 33856 ft | 450 kts | 213° |
| 2026-05-04 13:55 | 15.37272 | -161.80072 | 33854 ft | 450 kts | 213° |
| 2026-05-04 13:55 | 15.29020 | -161.84741 | 33851 ft | 450 kts | 213° |
| 2026-05-04 13:56 | 15.23520 | -161.87846 | 33838 ft | 450 kts | 213° |
| 2026-05-04 13:57 | 15.15231 | -161.92411 | 33858 ft | 453 kts | 210° |
| 2026-05-04 13:58 | 15.03471 | -161.97311 | 33850 ft | 456 kts | 206° |
| 2026-05-04 13:58 | 14.94606 | -162.00917 | 33850 ft | 456 kts | 207° |
| 2026-05-04 13:59 | 14.88708 | -162.03342 | 33845 ft | 455 kts | 207° |
| 2026-05-04 14:00 | 14.79896 | -162.06966 | 33847 ft | 454 kts | 207° |
| 2026-05-04 14:00 | 14.71125 | -162.10569 | 33845 ft | 454 kts | 207° |
| 2026-05-04 14:01 | 14.65252 | -162.12980 | 33841 ft | 454 kts | 207° |
| 2026-05-04 14:02 | 14.56438 | -162.16596 | 33833 ft | 454 kts | 207° |
| 2026-05-04 14:02 | 14.50559 | -162.19005 | 33834 ft | 454 kts | 207° |
| 2026-05-04 14:03 | 14.44682 | -162.21412 | 33835 ft | 455 kts | 207° |
| 2026-05-04 14:03 | 14.38799 | -162.23820 | 33836 ft | 455 kts | 207° |
| 2026-05-04 14:04 | 14.29964 | -162.27430 | 33843 ft | 456 kts | 207° |
| 2026-05-04 14:04 | 14.24061 | -162.29842 | 33818 ft | 454 kts | 206° |
| 2026-05-04 14:05 | 14.15270 | -162.33430 | 33835 ft | 452 kts | 206° |
| 2026-05-04 14:06 | 14.09463 | -162.35801 | 33815 ft | 452 kts | 206° |
| 2026-05-04 14:06 | 14.03617 | -162.38187 | 33831 ft | 452 kts | 206° |
| 2026-05-04 14:07 | 13.97770 | -162.40571 | 33815 ft | 452 kts | 206° |
| 2026-05-04 14:07 | 13.91921 | -162.42955 | 33815 ft | 452 kts | 206° |
| 2026-05-04 14:08 | 13.86088 | -162.45331 | 33823 ft | 450 kts | 205° |
| 2026-05-04 14:08 | 13.80274 | -162.47697 | 33821 ft | 450 kts | 205° |
| 2026-05-04 14:09 | 13.71537 | -162.51252 | 33818 ft | 450 kts | 205° |
| 2026-05-04 14:10 | 13.62801 | -162.54803 | 33818 ft | 450 kts | 205° |
| 2026-05-04 14:10 | 13.56975 | -162.57167 | 33807 ft | 452 kts | 205° |
| 2026-05-04 14:11 | 13.51099 | -162.59551 | 33811 ft | 454 kts | 205° |
| 2026-05-04 14:11 | 13.42337 | -162.63103 | 33813 ft | 452 kts | 205° |
| 2026-05-04 14:12 | 13.36486 | -162.65475 | 33813 ft | 452 kts | 205° |
| 2026-05-04 14:13 | 13.27715 | -162.69030 | 33810 ft | 452 kts | 205° |
| 2026-05-04 14:13 | 13.21849 | -162.71406 | 33808 ft | 456 kts | 205° |
| 2026-05-04 14:14 | 13.15938 | -162.73800 | 33809 ft | 457 kts | 205° |
| 2026-05-04 14:14 | 13.07073 | -162.77384 | 33810 ft | 456 kts | 205° |
| 2026-05-04 14:15 | 12.95248 | -162.82163 | 33805 ft | 456 kts | 205° |
| 2026-05-04 14:16 | 12.86366 | -162.85749 | 33795 ft | 459 kts | 205° |
| 2026-05-04 14:17 | 12.77445 | -162.89344 | 33797 ft | 459 kts | 205° |
| 2026-05-04 14:18 | 12.68524 | -162.92937 | 33795 ft | 459 kts | 205° |
| 2026-05-04 14:19 | 12.56666 | -162.97712 | 33788 ft | 459 kts | 204° |
| 2026-05-04 14:19 | 12.50718 | -163.00107 | 33794 ft | 460 kts | 204° |
| 2026-05-04 14:20 | 12.44758 | -163.02504 | 33791 ft | 460 kts | 204° |
| 2026-05-04 14:20 | 12.38803 | -163.04898 | 33794 ft | 460 kts | 204° |
| 2026-05-04 14:21 | 12.29871 | -163.08488 | 33786 ft | 460 kts | 204° |
| 2026-05-04 14:21 | 12.23915 | -163.10879 | 33787 ft | 460 kts | 204° |
| 2026-05-04 14:22 | 12.17958 | -163.13270 | 33787 ft | 460 kts | 204° |
| 2026-05-04 14:22 | 12.11995 | -163.15662 | 33786 ft | 460 kts | 204° |
| 2026-05-04 14:23 | 12.03102 | -163.19226 | 33785 ft | 460 kts | 204° |
| 2026-05-04 14:24 | 11.97142 | -163.21611 | 33773 ft | 460 kts | 204° |
| 2026-05-04 14:24 | 11.91169 | -163.24002 | 33785 ft | 460 kts | 204° |
| 2026-05-04 14:25 | 11.85214 | -163.26386 | 33782 ft | 459 kts | 203° |
| 2026-05-04 14:25 | 11.76303 | -163.29950 | 33780 ft | 458 kts | 203° |
| 2026-05-04 14:26 | 11.70352 | -163.32331 | 33780 ft | 460 kts | 203° |
| 2026-05-04 14:26 | 11.64393 | -163.34712 | 33774 ft | 460 kts | 203° |
| 2026-05-04 14:27 | 11.58426 | -163.37096 | 33777 ft | 460 kts | 203° |
| 2026-05-04 14:27 | 11.52469 | -163.39474 | 33773 ft | 458 kts | 203° |
| 2026-05-04 14:28 | 11.46548 | -163.41836 | 33774 ft | 457 kts | 203° |
| 2026-05-04 14:28 | 11.40629 | -163.44198 | 33768 ft | 456 kts | 203° |
| 2026-05-04 14:29 | 11.28836 | -163.48899 | 33771 ft | 456 kts | 203° |
| 2026-05-04 14:30 | 11.22921 | -163.51253 | 33768 ft | 456 kts | 203° |
| 2026-05-04 14:31 | 11.14046 | -163.54784 | 33770 ft | 456 kts | 203° |
| 2026-05-04 14:32 | 11.02212 | -163.59492 | 33769 ft | 456 kts | 203° |
| 2026-05-04 14:32 | 10.96299 | -163.61843 | 33768 ft | 456 kts | 203° |
| 2026-05-04 14:33 | 10.90382 | -163.64195 | 33768 ft | 456 kts | 203° |
| 2026-05-04 14:33 | 10.84462 | -163.66547 | 33763 ft | 457 kts | 203° |
| 2026-05-04 14:34 | 10.78534 | -163.68901 | 33764 ft | 457 kts | 203° |
| 2026-05-04 14:34 | 10.72611 | -163.71252 | 33763 ft | 457 kts | 203° |
| 2026-05-04 14:35 | 10.66683 | -163.73603 | 33766 ft | 457 kts | 203° |
| 2026-05-04 14:35 | 10.60790 | -163.75940 | 33766 ft | 457 kts | 203° |
| 2026-05-04 14:36 | 10.54860 | -163.78291 | 33759 ft | 457 kts | 203° |
| 2026-05-04 14:36 | 10.48934 | -163.80639 | 33760 ft | 457 kts | 203° |
| 2026-05-04 14:37 | 10.43968 | -163.82603 | 33760 ft | 457 kts | 203° |
| 2026-05-04 14:37 | 10.38075 | -163.84935 | 33763 ft | 457 kts | 203° |
| 2026-05-04 14:38 | 10.32150 | -163.87279 | 33763 ft | 457 kts | 203° |
| 2026-05-04 14:38 | 10.26240 | -163.89618 | 33758 ft | 457 kts | 203° |
| 2026-05-04 14:39 | 10.20313 | -163.91962 | 33757 ft | 457 kts | 203° |
| 2026-05-04 14:39 | 10.14393 | -163.94302 | 33752 ft | 457 kts | 203° |
| 2026-05-04 14:40 | 10.05506 | -163.97813 | 33754 ft | 457 kts | 203° |
| 2026-05-04 14:40 | 9.99588 | -164.00156 | 33755 ft | 457 kts | 203° |
| 2026-05-04 14:41 | 9.93718 | -164.02525 | 33755 ft | 457 kts | 203° |
| 2026-05-04 14:42 | 9.81898 | -164.07322 | 33751 ft | 457 kts | 203° |
| 2026-05-04 14:42 | 9.75994 | -164.09714 | 33751 ft | 457 kts | 203° |
| 2026-05-04 14:43 | 9.70084 | -164.12107 | 33752 ft | 457 kts | 203° |
| 2026-05-04 14:43 | 9.64182 | -164.14496 | 33751 ft | 457 kts | 203° |
| 2026-05-04 14:44 | 9.58278 | -164.16884 | 33749 ft | 457 kts | 203° |
| 2026-05-04 14:44 | 9.52374 | -164.19272 | 33749 ft | 457 kts | 203° |
| 2026-05-04 14:45 | 9.46470 | -164.21659 | 33743 ft | 457 kts | 203° |
| 2026-05-04 14:45 | 9.40556 | -164.24050 | 33749 ft | 458 kts | 203° |
| 2026-05-04 14:46 | 9.34640 | -164.26439 | 33746 ft | 458 kts | 203° |
| 2026-05-04 14:46 | 9.28718 | -164.28831 | 33746 ft | 458 kts | 203° |
| 2026-05-04 14:47 | 9.22836 | -164.31205 | 33749 ft | 458 kts | 203° |
| 2026-05-04 14:47 | 9.16879 | -164.33606 | 33746 ft | 458 kts | 203° |
| 2026-05-04 14:48 | 9.11003 | -164.35975 | 33742 ft | 458 kts | 203° |
| 2026-05-04 14:48 | 9.05076 | -164.38365 | 33743 ft | 459 kts | 203° |
| 2026-05-04 14:49 | 8.99142 | -164.40757 | 33741 ft | 459 kts | 203° |
| 2026-05-04 14:49 | 8.93206 | -164.43148 | 33741 ft | 459 kts | 203° |
| 2026-05-04 14:50 | 8.87277 | -164.45537 | 33743 ft | 459 kts | 203° |
| 2026-05-04 14:50 | 8.81343 | -164.47926 | 33746 ft | 459 kts | 203° |
| 2026-05-04 14:51 | 8.75409 | -164.50315 | 33742 ft | 459 kts | 203° |
| 2026-05-04 14:51 | 8.69454 | -164.52711 | 33744 ft | 461 kts | 203° |
| 2026-05-04 14:52 | 8.63496 | -164.55108 | 33744 ft | 461 kts | 203° |
| 2026-05-04 14:52 | 8.57537 | -164.57504 | 33744 ft | 461 kts | 203° |
| 2026-05-04 14:53 | 8.51586 | -164.59896 | 33741 ft | 461 kts | 203° |
| 2026-05-04 14:53 | 8.45668 | -164.62274 | 33738 ft | 461 kts | 203° |
| 2026-05-04 14:54 | 8.39706 | -164.64667 | 33740 ft | 461 kts | 203° |
| 2026-05-04 14:54 | 8.33726 | -164.67067 | 33739 ft | 462 kts | 203° |
| 2026-05-04 14:55 | 8.27751 | -164.69465 | 33737 ft | 462 kts | 203° |
| 2026-05-04 14:55 | 8.21777 | -164.71863 | 33738 ft | 462 kts | 203° |
| 2026-05-04 14:56 | 8.15801 | -164.74260 | 33739 ft | 462 kts | 203° |
| 2026-05-04 14:56 | 8.09826 | -164.76656 | 33738 ft | 462 kts | 203° |
| 2026-05-04 14:57 | 8.03850 | -164.79052 | 33734 ft | 462 kts | 202° |
| 2026-05-04 14:57 | 7.97881 | -164.81444 | 33735 ft | 461 kts | 202° |
| 2026-05-04 14:58 | 7.91917 | -164.83834 | 33734 ft | 461 kts | 202° |
| 2026-05-04 14:58 | 7.85996 | -164.86206 | 33735 ft | 461 kts | 202° |
| 2026-05-04 14:59 | 7.80030 | -164.88594 | 33735 ft | 461 kts | 202° |
| 2026-05-04 15:00 | 7.71086 | -164.92174 | 33736 ft | 461 kts | 202° |
| 2026-05-04 15:00 | 7.65124 | -164.94559 | 33740 ft | 461 kts | 202° |
| 2026-05-04 15:01 | 7.56176 | -164.98135 | 33730 ft | 461 kts | 202° |
| 2026-05-04 15:01 | 7.50212 | -165.00519 | 33731 ft | 461 kts | 202° |
| 2026-05-04 15:02 | 7.44248 | -165.02903 | 33729 ft | 461 kts | 202° |
| 2026-05-04 15:02 | 7.38283 | -165.05286 | 33730 ft | 461 kts | 202° |
| 2026-05-04 15:03 | 7.32309 | -165.07673 | 33727 ft | 461 kts | 202° |
| 2026-05-04 15:03 | 7.26349 | -165.10053 | 33730 ft | 460 kts | 202° |
| 2026-05-04 15:04 | 7.20398 | -165.12428 | 33730 ft | 460 kts | 202° |
| 2026-05-04 15:04 | 7.14441 | -165.14806 | 33730 ft | 460 kts | 202° |
| 2026-05-04 15:05 | 7.08523 | -165.17167 | 33729 ft | 460 kts | 202° |
| 2026-05-04 15:05 | 7.02572 | -165.19541 | 33730 ft | 460 kts | 202° |
| 2026-05-04 15:06 | 6.96618 | -165.21915 | 33731 ft | 460 kts | 202° |
| 2026-05-04 15:07 | 6.87703 | -165.25468 | 33732 ft | 459 kts | 202° |
| 2026-05-04 15:07 | 6.81756 | -165.27836 | 33729 ft | 460 kts | 202° |
| 2026-05-04 15:08 | 6.75811 | -165.30204 | 33728 ft | 460 kts | 202° |
| 2026-05-04 15:08 | 6.69879 | -165.32566 | 33730 ft | 460 kts | 202° |
| 2026-05-04 15:09 | 6.63937 | -165.34932 | 33731 ft | 460 kts | 202° |
| 2026-05-04 15:09 | 6.57982 | -165.37303 | 33732 ft | 461 kts | 202° |
| 2026-05-04 15:10 | 6.49013 | -165.40872 | 33733 ft | 462 kts | 202° |
| 2026-05-04 15:11 | 6.40060 | -165.44434 | 33730 ft | 461 kts | 202° |
| 2026-05-04 15:11 | 6.34093 | -165.46806 | 33729 ft | 461 kts | 202° |
| 2026-05-04 15:12 | 6.28136 | -165.49175 | 33733 ft | 461 kts | 202° |
| 2026-05-04 15:12 | 6.22171 | -165.51546 | 33731 ft | 462 kts | 202° |
| 2026-05-04 15:13 | 6.16233 | -165.53905 | 33730 ft | 462 kts | 202° |
| 2026-05-04 15:13 | 6.10252 | -165.56281 | 33732 ft | 462 kts | 202° |
| 2026-05-04 15:14 | 6.04264 | -165.58658 | 33728 ft | 462 kts | 202° |
| 2026-05-04 15:14 | 5.98283 | -165.61031 | 33730 ft | 462 kts | 202° |
| 2026-05-04 15:15 | 5.92298 | -165.63408 | 33730 ft | 462 kts | 202° |
| 2026-05-04 15:15 | 5.86317 | -165.65781 | 33731 ft | 463 kts | 202° |
| 2026-05-04 15:16 | 5.77337 | -165.69344 | 33730 ft | 462 kts | 202° |
| 2026-05-04 15:17 | 5.68355 | -165.72907 | 33730 ft | 463 kts | 202° |
| 2026-05-04 15:17 | 5.59371 | -165.76469 | 33729 ft | 463 kts | 202° |
| 2026-05-04 15:18 | 5.53384 | -165.78842 | 33726 ft | 463 kts | 202° |
| 2026-05-04 15:19 | 5.44424 | -165.82393 | 33731 ft | 464 kts | 202° |
| 2026-05-04 15:19 | 5.35424 | -165.85959 | 33730 ft | 463 kts | 202° |
| 2026-05-04 15:20 | 5.29429 | -165.88332 | 33729 ft | 463 kts | 202° |
| 2026-05-04 15:20 | 5.23431 | -165.90705 | 33732 ft | 464 kts | 202° |
| 2026-05-04 15:21 | 5.17433 | -165.93079 | 33731 ft | 463 kts | 202° |
| 2026-05-04 15:22 | 5.08430 | -165.96643 | 33730 ft | 464 kts | 202° |
| 2026-05-04 15:22 | 4.99415 | -166.00216 | 33731 ft | 464 kts | 202° |
| 2026-05-04 15:23 | 4.93439 | -166.02627 | 33730 ft | 464 kts | 202° |
| 2026-05-04 15:23 | 4.87456 | -166.05053 | 33731 ft | 464 kts | 202° |
| 2026-05-04 15:24 | 4.75513 | -166.09889 | 33729 ft | 464 kts | 202° |
| 2026-05-04 15:25 | 4.70528 | -166.11906 | 33730 ft | 464 kts | 202° |
| 2026-05-04 15:26 | 4.61534 | -166.15543 | 33732 ft | 464 kts | 202° |
| 2026-05-04 15:26 | 4.52541 | -166.19180 | 33732 ft | 465 kts | 202° |
| 2026-05-04 15:27 | 4.43555 | -166.22813 | 33723 ft | 465 kts | 202° |
| 2026-05-04 15:28 | 4.34540 | -166.26456 | 33731 ft | 465 kts | 202° |
| 2026-05-04 15:29 | 4.25527 | -166.30098 | 33726 ft | 465 kts | 202° |
| 2026-05-04 15:30 | 4.04536 | -166.38573 | 33733 ft | 465 kts | 202° |
| 2026-05-04 15:31 | 3.95526 | -166.42211 | 33733 ft | 465 kts | 202° |
| 2026-05-04 15:32 | 3.80502 | -166.48274 | 33733 ft | 465 kts | 202° |
| 2026-05-04 15:34 | 3.65470 | -166.54339 | 33733 ft | 467 kts | 202° |
| 2026-05-04 15:34 | 3.56434 | -166.57983 | 33732 ft | 467 kts | 202° |
| 2026-05-04 15:35 | 3.47393 | -166.61628 | 33734 ft | 467 kts | 202° |
| 2026-05-04 15:36 | 3.38353 | -166.65271 | 33730 ft | 467 kts | 203° |
| 2026-05-04 15:36 | 3.32329 | -166.67699 | 33726 ft | 468 kts | 202° |
| 2026-05-04 15:37 | 3.26321 | -166.70121 | 33729 ft | 469 kts | 202° |
| 2026-05-04 15:37 | 3.20272 | -166.72558 | 33730 ft | 468 kts | 202° |
| 2026-05-04 15:38 | 3.14237 | -166.74990 | 33735 ft | 468 kts | 202° |
| 2026-05-04 15:38 | 3.08182 | -166.77429 | 33730 ft | 469 kts | 202° |
| 2026-05-04 15:39 | 3.02131 | -166.79866 | 33733 ft | 469 kts | 203° |
| 2026-05-04 15:40 | 2.93048 | -166.83524 | 33731 ft | 470 kts | 202° |
| 2026-05-04 15:40 | 2.86971 | -166.85972 | 33733 ft | 471 kts | 203° |
| 2026-05-04 15:41 | 2.80893 | -166.88419 | 33733 ft | 470 kts | 202° |
| 2026-05-04 15:41 | 2.74865 | -166.90846 | 33731 ft | 470 kts | 202° |
| 2026-05-04 15:42 | 2.68755 | -166.93305 | 33731 ft | 470 kts | 203° |
| 2026-05-04 15:42 | 2.62735 | -166.95728 | 33728 ft | 470 kts | 202° |
| 2026-05-04 15:43 | 2.56665 | -166.98170 | 33729 ft | 472 kts | 203° |
| 2026-05-04 15:43 | 2.50565 | -167.00625 | 33735 ft | 472 kts | 203° |
| 2026-05-04 15:44 | 2.44466 | -167.03079 | 33733 ft | 472 kts | 203° |
| 2026-05-04 15:44 | 2.38370 | -167.05532 | 33731 ft | 472 kts | 203° |
| 2026-05-04 15:45 | 2.32271 | -167.07985 | 33731 ft | 472 kts | 203° |
| 2026-05-04 15:45 | 2.26172 | -167.10439 | 33727 ft | 472 kts | 203° |
| 2026-05-04 15:46 | 2.20069 | -167.12894 | 33728 ft | 473 kts | 203° |
| 2026-05-04 15:46 | 2.14005 | -167.15333 | 33730 ft | 473 kts | 203° |
| 2026-05-04 15:47 | 2.07904 | -167.17786 | 33732 ft | 473 kts | 203° |
| 2026-05-04 15:47 | 2.01793 | -167.20243 | 33729 ft | 473 kts | 203° |
| 2026-05-04 15:48 | 1.95690 | -167.22698 | 33730 ft | 473 kts | 203° |
| 2026-05-04 15:48 | 1.86536 | -167.26377 | 33728 ft | 473 kts | 203° |
| 2026-05-04 15:49 | 1.80429 | -167.28832 | 33729 ft | 473 kts | 203° |
| 2026-05-04 15:49 | 1.74324 | -167.31286 | 33726 ft | 473 kts | 203° |
| 2026-05-04 15:50 | 1.68214 | -167.33742 | 33728 ft | 473 kts | 203° |
| 2026-05-04 15:50 | 1.62108 | -167.36196 | 33730 ft | 473 kts | 203° |
| 2026-05-04 15:51 | 1.55998 | -167.38652 | 33730 ft | 473 kts | 203° |
| 2026-05-04 15:51 | 1.49884 | -167.41109 | 33731 ft | 473 kts | 203° |
| 2026-05-04 15:52 | 1.43774 | -167.43564 | 33730 ft | 473 kts | 203° |
| 2026-05-04 15:52 | 1.37705 | -167.46003 | 33732 ft | 473 kts | 203° |
| 2026-05-04 15:53 | 1.31603 | -167.48455 | 33731 ft | 473 kts | 203° |
| 2026-05-04 15:53 | 1.25487 | -167.50912 | 33732 ft | 473 kts | 203° |
| 2026-05-04 15:54 | 1.19376 | -167.53367 | 33728 ft | 474 kts | 203° |
| 2026-05-04 15:54 | 1.13387 | -167.55771 | 33728 ft | 449 kts | 203° |
| 2026-05-04 15:55 | 1.07599 | -167.58096 | 33735 ft | 446 kts | 203° |
| 2026-05-04 15:55 | 1.01843 | -167.60409 | 33728 ft | 446 kts | 204° |
| 2026-05-04 15:56 | 0.96086 | -167.62723 | 33729 ft | 446 kts | 203° |
| 2026-05-04 15:56 | 0.90332 | -167.65034 | 33729 ft | 446 kts | 203° |
| 2026-05-04 15:57 | 0.84580 | -167.67345 | 33730 ft | 446 kts | 203° |
| 2026-05-04 15:57 | 0.78820 | -167.69658 | 33732 ft | 446 kts | 203° |
| 2026-05-04 15:58 | 0.73070 | -167.71968 | 33727 ft | 445 kts | 204° |
| 2026-05-04 15:58 | 0.67325 | -167.74275 | 33727 ft | 445 kts | 204° |
| 2026-05-04 15:59 | 0.61578 | -167.76583 | 33729 ft | 445 kts | 204° |
| 2026-05-04 15:59 | 0.55837 | -167.78889 | 33726 ft | 445 kts | 204° |
| 2026-05-04 16:00 | 0.50096 | -167.81194 | 33730 ft | 445 kts | 204° |
| 2026-05-04 16:00 | 0.44358 | -167.83498 | 33730 ft | 444 kts | 204° |
| 2026-05-04 16:01 | 0.38617 | -167.85804 | 33727 ft | 445 kts | 204° |
| 2026-05-04 16:01 | 0.32877 | -167.88109 | 33729 ft | 445 kts | 204° |
| 2026-05-04 16:02 | 0.27137 | -167.90414 | 33728 ft | 445 kts | 204° |
| 2026-05-04 16:03 | 0.18526 | -167.93872 | 33727 ft | 445 kts | 204° |
| 2026-05-04 16:03 | 0.12818 | -167.96164 | 33726 ft | 445 kts | 204° |
| 2026-05-04 16:04 | 0.07069 | -167.98473 | 33724 ft | 445 kts | 204° |
| 2026-05-04 16:04 | -0.01563 | -168.01939 | 33726 ft | 446 kts | 203° |
| 2026-05-04 16:05 | -0.07324 | -168.04252 | 33726 ft | 446 kts | 203° |
| 2026-05-04 16:06 | -0.15974 | -168.07725 | 33725 ft | 446 kts | 203° |
| 2026-05-04 16:07 | -0.27499 | -168.12353 | 33724 ft | 446 kts | 203° |
| 2026-05-04 16:08 | -0.39024 | -168.16981 | 33729 ft | 446 kts | 203° |
| 2026-05-04 16:09 | -0.53350 | -168.22734 | 33732 ft | 445 kts | 203° |
| 2026-05-04 16:10 | -0.64858 | -168.27356 | 33729 ft | 445 kts | 203° |
| 2026-05-04 16:11 | -0.76365 | -168.31977 | 33728 ft | 444 kts | 203° |
| 2026-05-04 16:12 | -0.92565 | -168.38484 | 33727 ft | 443 kts | 203° |
| 2026-05-04 16:13 | -1.03998 | -168.43076 | 33726 ft | 443 kts | 203° |
| 2026-05-04 16:14 | -1.15418 | -168.47663 | 33732 ft | 438 kts | 204° |
| 2026-05-04 16:16 | -1.29492 | -168.53318 | 33731 ft | 436 kts | 204° |
| 2026-05-04 16:17 | -1.43552 | -168.58968 | 33728 ft | 436 kts | 204° |
| 2026-05-04 16:18 | -1.54800 | -168.63488 | 33734 ft | 441 kts | 204° |
| 2026-05-04 16:19 | -1.69050 | -168.69215 | 33731 ft | 443 kts | 204° |
| 2026-05-04 16:20 | -1.83369 | -168.74970 | 33732 ft | 444 kts | 204° |
| 2026-05-04 16:22 | -1.97683 | -168.80725 | 33732 ft | 443 kts | 204° |
| 2026-05-04 16:23 | -2.14800 | -168.87608 | 33732 ft | 443 kts | 204° |
| 2026-05-04 16:25 | -2.31956 | -168.94509 | 33734 ft | 443 kts | 203° |
| 2026-05-04 16:26 | -2.51992 | -169.02570 | 33737 ft | 443 kts | 203° |
| 2026-05-04 16:28 | -2.66295 | -169.08326 | 33739 ft | 442 kts | 203° |
| 2026-05-04 16:29 | -2.86222 | -169.16348 | 33740 ft | 442 kts | 203° |
| 2026-05-04 16:31 | -3.00477 | -169.22088 | 33743 ft | 442 kts | 202° |
| 2026-05-04 16:32 | -3.17546 | -169.28964 | 33745 ft | 440 kts | 203° |
| 2026-05-04 16:33 | -3.28916 | -169.33545 | 33743 ft | 440 kts | 203° |
| 2026-05-04 16:34 | -3.37405 | -169.36966 | 33743 ft | 440 kts | 203° |
| 2026-05-04 16:35 | -3.54449 | -169.43837 | 33745 ft | 439 kts | 202° |
| 2026-05-04 16:36 | -3.62929 | -169.47258 | 33748 ft | 438 kts | 202° |
| 2026-05-04 16:37 | -3.71414 | -169.50680 | 33746 ft | 438 kts | 202° |
| 2026-05-04 16:38 | -3.82702 | -169.55234 | 33750 ft | 438 kts | 202° |
| 2026-05-04 16:39 | -3.96832 | -169.60936 | 33749 ft | 438 kts | 202° |
| 2026-05-04 16:40 | -4.08136 | -169.65500 | 33753 ft | 438 kts | 202° |
| 2026-05-04 16:41 | -4.22213 | -169.71184 | 33752 ft | 437 kts | 202° |
| 2026-05-04 16:43 | -4.36318 | -169.76883 | 33751 ft | 437 kts | 202° |
| 2026-05-04 16:43 | -4.44779 | -169.80304 | 33753 ft | 439 kts | 202° |
| 2026-05-04 16:45 | -4.61774 | -169.87174 | 33752 ft | 438 kts | 203° |
| 2026-05-04 16:46 | -4.75911 | -169.92892 | 33755 ft | 438 kts | 203° |
| 2026-05-04 16:47 | -4.87232 | -169.97472 | 33755 ft | 438 kts | 203° |
| 2026-05-04 16:48 | -4.98523 | -170.02043 | 33755 ft | 438 kts | 203° |
| 2026-05-04 16:49 | -5.09840 | -170.06625 | 33757 ft | 438 kts | 203° |
| 2026-05-04 16:50 | -5.21153 | -170.11210 | 34500 ft | 437 kts | 203° |
| 2026-05-04 16:51 | -5.26628 | -170.13807 | 35079 ft | 434 kts | 211° |
| 2026-05-04 16:51 | -5.29236 | -170.15337 | 35339 ft | 434 kts | 212° |
| 2026-05-04 16:51 | -5.34359 | -170.18483 | 35720 ft | 435 kts | 213° |
| 2026-05-04 16:52 | -5.39513 | -170.21633 | 35754 ft | 433 kts | 212° |
| 2026-05-04 16:53 | -5.47261 | -170.26309 | 35759 ft | 433 kts | 212° |
| 2026-05-04 16:53 | -5.55013 | -170.30972 | 35888 ft | 434 kts | 212° |
| 2026-05-04 16:54 | -5.57604 | -170.32531 | 35892 ft | 434 kts | 212° |
| 2026-05-04 16:55 | -5.73136 | -170.41883 | 35892 ft | 433 kts | 212° |
| 2026-05-04 16:56 | -5.86069 | -170.49674 | 35892 ft | 434 kts | 212° |
| 2026-05-04 16:57 | -5.93831 | -170.54352 | 35894 ft | 433 kts | 212° |
| 2026-05-04 16:58 | -6.04176 | -170.60593 | 35892 ft | 434 kts | 212° |
| 2026-05-04 17:00 | -6.18852 | -170.69446 | 35889 ft | 434 kts | 212° |
| 2026-05-04 17:01 | -6.31770 | -170.77244 | 35884 ft | 434 kts | 212° |
| 2026-05-04 17:02 | -6.42158 | -170.83517 | 35884 ft | 433 kts | 212° |
| 2026-05-04 17:03 | -6.49872 | -170.88178 | 35885 ft | 433 kts | 212° |
| 2026-05-04 17:03 | -6.57612 | -170.92856 | 35884 ft | 433 kts | 212° |
| 2026-05-04 17:04 | -6.67925 | -170.99093 | 35884 ft | 432 kts | 212° |
| 2026-05-04 17:05 | -6.78234 | -171.05333 | 35884 ft | 432 kts | 212° |
| 2026-05-04 17:06 | -6.85947 | -171.10002 | 35886 ft | 431 kts | 212° |
| 2026-05-04 17:07 | -6.92791 | -171.14146 | 35881 ft | 431 kts | 212° |
| 2026-05-04 17:07 | -6.98800 | -171.17785 | 35881 ft | 431 kts | 212° |
| 2026-05-04 17:08 | -7.06466 | -171.22430 | 35881 ft | 431 kts | 212° |
| 2026-05-04 17:09 | -7.11601 | -171.25542 | 35886 ft | 431 kts | 212° |
| 2026-05-04 17:09 | -7.16742 | -171.28658 | 35887 ft | 431 kts | 213° |
| 2026-05-04 17:10 | -7.29601 | -171.36458 | 35879 ft | 432 kts | 213° |
| 2026-05-04 17:11 | -7.34747 | -171.39580 | 35879 ft | 432 kts | 213° |
| 2026-05-04 17:12 | -7.42460 | -171.44264 | 35882 ft | 431 kts | 213° |
| 2026-05-04 17:13 | -7.55313 | -171.52073 | 35882 ft | 431 kts | 213° |
| 2026-05-04 17:14 | -7.65594 | -171.58321 | 35885 ft | 431 kts | 213° |
| 2026-05-04 17:15 | -7.73302 | -171.63008 | 35885 ft | 431 kts | 213° |
| 2026-05-04 17:16 | -7.83536 | -171.69233 | 35879 ft | 431 kts | 213° |
| 2026-05-04 17:17 | -7.93804 | -171.75483 | 35877 ft | 431 kts | 213° |
| 2026-05-04 17:18 | -8.04080 | -171.81742 | 35879 ft | 431 kts | 213° |
| 2026-05-04 17:19 | -8.14351 | -171.88004 | 35883 ft | 431 kts | 213° |
| 2026-05-04 17:20 | -8.24625 | -171.94272 | 35880 ft | 431 kts | 213° |
| 2026-05-04 17:20 | -8.32344 | -171.98981 | 35880 ft | 432 kts | 213° |
| 2026-05-04 17:21 | -8.42639 | -172.05266 | 35878 ft | 432 kts | 213° |
| 2026-05-04 17:22 | -8.47786 | -172.08409 | 35881 ft | 432 kts | 213° |
| 2026-05-04 17:23 | -8.58069 | -172.14692 | 35879 ft | 432 kts | 213° |
| 2026-05-04 17:24 | -8.65756 | -172.19392 | 35883 ft | 433 kts | 213° |
| 2026-05-04 17:25 | -8.76070 | -172.25701 | 35876 ft | 433 kts | 213° |
| 2026-05-04 17:26 | -8.86380 | -172.32015 | 35880 ft | 433 kts | 213° |
| 2026-05-04 17:27 | -8.99262 | -172.39909 | 35879 ft | 433 kts | 213° |
| 2026-05-04 17:28 | -9.09569 | -172.46227 | 35878 ft | 433 kts | 213° |
| 2026-05-04 17:29 | -9.24990 | -172.55690 | 35878 ft | 433 kts | 213° |
| 2026-05-04 17:31 | -9.37871 | -172.63600 | 35876 ft | 433 kts | 213° |
| 2026-05-04 17:32 | -9.50768 | -172.71528 | 35875 ft | 434 kts | 213° |
| 2026-05-04 17:33 | -9.61087 | -172.77881 | 35875 ft | 434 kts | 213° |
| 2026-05-04 17:34 | -9.71409 | -172.84237 | 35876 ft | 434 kts | 214° |
| 2026-05-04 17:35 | -9.84270 | -172.92155 | 35875 ft | 434 kts | 212° |
| 2026-05-04 17:36 | -9.89750 | -172.94772 | 35876 ft | 437 kts | 204° |
| 2026-05-04 17:36 | -9.95439 | -172.96968 | 35872 ft | 438 kts | 203° |
| 2026-05-04 17:37 | -10.01133 | -172.99150 | 35871 ft | 437 kts | 204° |
| 2026-05-04 17:37 | -10.06811 | -173.01371 | 35873 ft | 437 kts | 204° |
| 2026-05-04 17:38 | -10.12488 | -173.03611 | 35873 ft | 437 kts | 204° |
| 2026-05-04 17:38 | -10.18148 | -173.05848 | 35873 ft | 438 kts | 204° |
| 2026-05-04 17:39 | -10.26672 | -173.09218 | 35875 ft | 438 kts | 204° |
| 2026-05-04 17:39 | -10.32351 | -173.11464 | 35875 ft | 438 kts | 204° |
| 2026-05-04 17:40 | -10.37999 | -173.13698 | 35875 ft | 438 kts | 204° |
| 2026-05-04 17:40 | -10.43682 | -173.15947 | 35874 ft | 438 kts | 204° |
| 2026-05-04 17:41 | -10.49356 | -173.18193 | 35873 ft | 437 kts | 204° |
| 2026-05-04 17:41 | -10.55028 | -173.20440 | 35874 ft | 438 kts | 204° |
| 2026-05-04 17:42 | -10.60710 | -173.22691 | 35876 ft | 438 kts | 204° |
| 2026-05-04 17:42 | -10.66384 | -173.24942 | 35875 ft | 438 kts | 204° |
| 2026-05-04 17:43 | -10.72061 | -173.27196 | 35876 ft | 438 kts | 204° |
| 2026-05-04 17:43 | -10.77736 | -173.29448 | 35877 ft | 438 kts | 204° |
| 2026-05-04 17:44 | -10.83371 | -173.31685 | 35878 ft | 438 kts | 204° |
| 2026-05-04 17:44 | -10.89051 | -173.33939 | 35876 ft | 438 kts | 204° |
| 2026-05-04 17:45 | -10.94722 | -173.36192 | 35880 ft | 438 kts | 204° |
| 2026-05-04 17:45 | -11.00397 | -173.38447 | 35878 ft | 437 kts | 204° |
| 2026-05-04 17:46 | -11.06068 | -173.40701 | 35879 ft | 437 kts | 204° |
| 2026-05-04 17:46 | -11.11709 | -173.42944 | 35879 ft | 437 kts | 204° |
| 2026-05-04 17:47 | -11.17413 | -173.45214 | 35877 ft | 437 kts | 204° |
| 2026-05-04 17:47 | -11.23045 | -173.47455 | 35886 ft | 437 kts | 204° |
| 2026-05-04 17:48 | -11.28717 | -173.49714 | 35879 ft | 438 kts | 204° |
| 2026-05-04 17:48 | -11.34391 | -173.51974 | 35878 ft | 438 kts | 204° |
| 2026-05-04 17:49 | -11.40063 | -173.54234 | 35879 ft | 437 kts | 204° |
| 2026-05-04 17:49 | -11.45708 | -173.56487 | 35879 ft | 435 kts | 204° |
| 2026-05-04 17:50 | -11.50431 | -173.58373 | 35880 ft | 435 kts | 204° |
| 2026-05-04 17:50 | -11.56068 | -173.60624 | 35879 ft | 435 kts | 204° |
| 2026-05-04 17:51 | -11.61703 | -173.62873 | 35881 ft | 435 kts | 204° |
| 2026-05-04 17:51 | -11.67349 | -173.65128 | 35880 ft | 435 kts | 204° |
| 2026-05-04 17:52 | -11.72998 | -173.67385 | 35880 ft | 435 kts | 204° |
| 2026-05-04 17:52 | -11.78599 | -173.69624 | 35883 ft | 435 kts | 204° |
| 2026-05-04 17:53 | -11.84234 | -173.71877 | 35882 ft | 435 kts | 204° |
| 2026-05-04 17:53 | -11.89878 | -173.74135 | 35886 ft | 435 kts | 204° |
| 2026-05-04 17:54 | -11.95516 | -173.76392 | 35881 ft | 435 kts | 204° |
| 2026-05-04 17:54 | -12.01152 | -173.78648 | 35882 ft | 435 kts | 204° |
| 2026-05-04 17:55 | -12.06791 | -173.80908 | 35886 ft | 435 kts | 204° |
| 2026-05-04 17:55 | -12.12428 | -173.83167 | 35887 ft | 435 kts | 204° |
| 2026-05-04 17:56 | -12.18065 | -173.85427 | 35888 ft | 435 kts | 204° |
| 2026-05-04 17:56 | -12.23702 | -173.87691 | 35890 ft | 435 kts | 204° |
| 2026-05-04 17:57 | -12.29338 | -173.89956 | 35892 ft | 435 kts | 204° |
| 2026-05-04 17:57 | -12.34934 | -173.92202 | 35892 ft | 434 kts | 205° |
| 2026-05-04 17:58 | -12.40554 | -173.94460 | 35888 ft | 434 kts | 205° |
| 2026-05-04 17:58 | -12.46168 | -173.96716 | 35888 ft | 433 kts | 205° |
| 2026-05-04 17:59 | -12.51783 | -173.98975 | 35891 ft | 433 kts | 205° |
| 2026-05-04 18:00 | -12.60200 | -174.02361 | 35888 ft | 433 kts | 205° |
| 2026-05-04 18:00 | -12.65816 | -174.04622 | 35893 ft | 433 kts | 205° |
| 2026-05-04 18:01 | -12.71431 | -174.06883 | 35897 ft | 433 kts | 205° |
| 2026-05-04 18:01 | -12.77048 | -174.09147 | 35894 ft | 434 kts | 205° |
| 2026-05-04 18:02 | -12.85478 | -174.12545 | 35893 ft | 434 kts | 205° |
| 2026-05-04 18:02 | -12.91100 | -174.14813 | 35892 ft | 434 kts | 205° |
| 2026-05-04 18:03 | -12.96721 | -174.17082 | 35899 ft | 434 kts | 205° |
| 2026-05-04 18:03 | -13.02300 | -174.19339 | 35896 ft | 434 kts | 205° |
| 2026-05-04 18:04 | -13.07920 | -174.21611 | 35907 ft | 434 kts | 205° |
| 2026-05-04 18:05 | -13.16374 | -174.25030 | 35897 ft | 435 kts | 205° |
| 2026-05-04 18:05 | -13.22009 | -174.27309 | 35907 ft | 435 kts | 205° |
| 2026-05-04 18:06 | -13.30455 | -174.30727 | 35902 ft | 434 kts | 205° |
| 2026-05-04 18:06 | -13.36070 | -174.33001 | 35907 ft | 433 kts | 205° |
| 2026-05-04 18:07 | -13.41679 | -174.35275 | 35897 ft | 433 kts | 205° |
| 2026-05-04 18:07 | -13.47308 | -174.37558 | 35906 ft | 438 kts | 205° |
| 2026-05-04 18:08 | -13.52977 | -174.39858 | 35902 ft | 439 kts | 205° |
| 2026-05-04 18:08 | -13.58659 | -174.42163 | 35902 ft | 439 kts | 205° |
| 2026-05-04 18:09 | -13.69994 | -174.46766 | 35905 ft | 439 kts | 205° |
| 2026-05-04 18:10 | -13.75680 | -174.49078 | 35905 ft | 439 kts | 205° |
| 2026-05-04 18:10 | -13.81367 | -174.51395 | 35912 ft | 441 kts | 205° |
| 2026-05-04 18:11 | -13.87083 | -174.53724 | 35906 ft | 442 kts | 205° |
| 2026-05-04 18:11 | -13.92808 | -174.56054 | 35906 ft | 443 kts | 205° |
| 2026-05-04 18:12 | -13.98541 | -174.58389 | 35909 ft | 443 kts | 205° |
| 2026-05-04 18:12 | -14.04268 | -174.60723 | 35908 ft | 443 kts | 205° |
| 2026-05-04 18:13 | -14.09995 | -174.63058 | 35904 ft | 443 kts | 205° |
| 2026-05-04 18:14 | -14.18553 | -174.66550 | 35909 ft | 444 kts | 205° |
| 2026-05-04 18:14 | -14.24301 | -174.68897 | 35905 ft | 444 kts | 205° |
| 2026-05-04 18:15 | -14.35779 | -174.73588 | 35903 ft | 444 kts | 205° |
| 2026-05-04 18:16 | -14.41519 | -174.75935 | 35904 ft | 444 kts | 205° |
| 2026-05-04 18:16 | -14.47254 | -174.78282 | 35901 ft | 443 kts | 205° |
| 2026-05-04 18:17 | -14.55858 | -174.81809 | 35904 ft | 443 kts | 205° |
| 2026-05-04 18:18 | -14.64463 | -174.85340 | 35901 ft | 443 kts | 205° |
| 2026-05-04 18:18 | -14.70196 | -174.87692 | 35901 ft | 443 kts | 205° |
| 2026-05-04 18:19 | -14.78758 | -174.91206 | 35897 ft | 443 kts | 205° |
| 2026-05-04 18:19 | -14.84487 | -174.93559 | 35897 ft | 443 kts | 205° |
| 2026-05-04 18:20 | -14.90216 | -174.95913 | 35900 ft | 443 kts | 206° |
| 2026-05-04 18:20 | -14.95952 | -174.98272 | 35898 ft | 444 kts | 206° |
| 2026-05-04 18:21 | -15.01697 | -175.00605 | 35898 ft | 444 kts | 205° |
| 2026-05-04 18:21 | -15.07482 | -175.02865 | 35896 ft | 444 kts | 205° |
| 2026-05-04 18:22 | -15.13267 | -175.05108 | 35896 ft | 444 kts | 205° |
| 2026-05-04 18:22 | -15.19045 | -175.07352 | 35898 ft | 443 kts | 205° |
| 2026-05-04 18:23 | -15.24805 | -175.09596 | 35905 ft | 444 kts | 205° |
| 2026-05-04 18:23 | -15.30593 | -175.11854 | 35899 ft | 445 kts | 205° |
| 2026-05-04 18:24 | -15.36381 | -175.14111 | 35895 ft | 445 kts | 205° |
| 2026-05-04 18:24 | -15.42177 | -175.16373 | 35895 ft | 445 kts | 205° |
| 2026-05-04 18:25 | -15.47966 | -175.18634 | 35897 ft | 445 kts | 205° |
| 2026-05-04 18:25 | -15.53761 | -175.20898 | 35896 ft | 445 kts | 205° |
| 2026-05-04 18:26 | -15.59549 | -175.23161 | 35900 ft | 445 kts | 206° |
| 2026-05-04 18:26 | -15.65371 | -175.25440 | 35895 ft | 448 kts | 206° |
| 2026-05-04 18:27 | -15.71168 | -175.27710 | 35900 ft | 449 kts | 206° |
| 2026-05-04 18:27 | -15.77007 | -175.29996 | 35905 ft | 449 kts | 206° |
| 2026-05-04 18:28 | -15.82846 | -175.32288 | 35900 ft | 448 kts | 206° |
| 2026-05-04 18:28 | -15.88721 | -175.34595 | 35894 ft | 448 kts | 206° |
| 2026-05-04 18:29 | -15.94523 | -175.36873 | 35896 ft | 449 kts | 206° |
| 2026-05-04 18:29 | -16.00392 | -175.39179 | 35908 ft | 453 kts | 207° |
| 2026-05-04 18:30 | -16.09235 | -175.42654 | 35913 ft | 453 kts | 207° |
| 2026-05-04 18:31 | -16.15120 | -175.44963 | 35901 ft | 451 kts | 207° |
| 2026-05-04 18:31 | -16.20989 | -175.47275 | 35901 ft | 451 kts | 208° |
| 2026-05-04 18:32 | -16.26856 | -175.49587 | 35900 ft | 451 kts | 207° |
| 2026-05-04 18:32 | -16.32727 | -175.51902 | 35903 ft | 452 kts | 207° |
| 2026-05-04 18:33 | -16.38611 | -175.54223 | 35897 ft | 453 kts | 207° |
| 2026-05-04 18:33 | -16.44504 | -175.56548 | 35903 ft | 453 kts | 207° |
| 2026-05-04 18:34 | -16.50391 | -175.58872 | 35901 ft | 453 kts | 207° |
| 2026-05-04 18:34 | -16.56281 | -175.61199 | 35900 ft | 453 kts | 207° |
| 2026-05-04 18:35 | -16.62169 | -175.63531 | 35906 ft | 452 kts | 207° |
| 2026-05-04 18:35 | -16.68062 | -175.65866 | 35914 ft | 455 kts | 207° |
| 2026-05-04 18:36 | -16.73989 | -175.68215 | 35909 ft | 456 kts | 207° |
| 2026-05-04 18:36 | -16.79921 | -175.70564 | 35908 ft | 456 kts | 207° |
| 2026-05-04 18:37 | -16.84854 | -175.72518 | 35909 ft | 456 kts | 207° |
| 2026-05-04 18:37 | -16.91749 | -175.75253 | 35911 ft | 456 kts | 207° |
| 2026-05-04 18:38 | -16.96720 | -175.77226 | 35911 ft | 456 kts | 207° |
| 2026-05-04 18:38 | -17.02643 | -175.79579 | 35928 ft | 458 kts | 207° |
| 2026-05-04 18:39 | -17.08578 | -175.81940 | 35915 ft | 460 kts | 207° |
| 2026-05-04 18:39 | -17.14565 | -175.84320 | 35914 ft | 460 kts | 207° |
| 2026-05-04 18:40 | -17.20543 | -175.86698 | 35915 ft | 460 kts | 207° |
| 2026-05-04 18:40 | -17.26526 | -175.89080 | 35916 ft | 460 kts | 207° |
| 2026-05-04 18:41 | -17.32502 | -175.91462 | 35922 ft | 460 kts | 207° |
| 2026-05-04 18:41 | -17.38482 | -175.93851 | 35930 ft | 460 kts | 208° |
| 2026-05-04 18:42 | -17.44471 | -175.96245 | 35925 ft | 461 kts | 208° |
| 2026-05-04 18:42 | -17.50467 | -175.98641 | 35925 ft | 461 kts | 208° |
| 2026-05-04 18:43 | -17.56459 | -176.01035 | 35923 ft | 461 kts | 208° |
| 2026-05-04 18:43 | -17.62451 | -176.03431 | 35927 ft | 461 kts | 208° |
| 2026-05-04 18:44 | -17.68448 | -176.05832 | 35923 ft | 461 kts | 208° |
| 2026-05-04 18:44 | -17.74452 | -176.08238 | 35930 ft | 465 kts | 208° |
| 2026-05-04 18:45 | -17.80465 | -176.10650 | 35929 ft | 466 kts | 208° |
| 2026-05-04 18:45 | -17.86533 | -176.13082 | 35928 ft | 466 kts | 208° |
| 2026-05-04 18:46 | -17.92593 | -176.15513 | 35938 ft | 466 kts | 208° |
| 2026-05-04 18:46 | -17.98657 | -176.17949 | 35943 ft | 466 kts | 208° |
| 2026-05-04 18:47 | -18.04713 | -176.20382 | 35936 ft | 465 kts | 208° |
| 2026-05-04 18:47 | -18.10763 | -176.22817 | 35936 ft | 465 kts | 208° |
| 2026-05-04 18:48 | -18.16770 | -176.25240 | 35940 ft | 465 kts | 208° |
| 2026-05-04 18:48 | -18.22816 | -176.27679 | 35941 ft | 465 kts | 208° |
| 2026-05-04 18:49 | -18.28862 | -176.30118 | 35940 ft | 465 kts | 208° |
| 2026-05-04 18:49 | -18.34907 | -176.32557 | 35945 ft | 465 kts | 208° |
| 2026-05-04 18:50 | -18.40997 | -176.35016 | 35958 ft | 467 kts | 208° |
| 2026-05-04 18:50 | -18.47034 | -176.37458 | 35942 ft | 469 kts | 208° |
| 2026-05-04 18:51 | -18.53129 | -176.39922 | 35944 ft | 469 kts | 208° |
| 2026-05-04 18:51 | -18.59224 | -176.42388 | 35946 ft | 469 kts | 208° |
| 2026-05-04 18:52 | -18.65314 | -176.44854 | 35950 ft | 469 kts | 208° |
| 2026-05-04 18:52 | -18.71404 | -176.47322 | 35952 ft | 469 kts | 208° |
| 2026-05-04 18:53 | -18.77502 | -176.49796 | 35959 ft | 471 kts | 208° |
| 2026-05-04 18:53 | -18.83621 | -176.52283 | 35951 ft | 473 kts | 208° |
| 2026-05-04 18:54 | -18.89761 | -176.54776 | 35948 ft | 473 kts | 208° |
| 2026-05-04 18:54 | -18.95896 | -176.57275 | 35955 ft | 473 kts | 209° |
| 2026-05-04 18:55 | -19.02033 | -176.59775 | 35951 ft | 472 kts | 208° |
| 2026-05-04 18:55 | -19.11243 | -176.63528 | 35972 ft | 474 kts | 209° |
| 2026-05-04 18:56 | -19.17402 | -176.66041 | 35955 ft | 475 kts | 209° |
| 2026-05-04 18:56 | -19.23571 | -176.68558 | 35958 ft | 475 kts | 209° |
| 2026-05-04 18:57 | -19.29744 | -176.71078 | 35955 ft | 475 kts | 209° |
| 2026-05-04 18:57 | -19.35910 | -176.73598 | 35955 ft | 475 kts | 209° |
| 2026-05-04 18:58 | -19.42076 | -176.76120 | 35965 ft | 475 kts | 209° |
| 2026-05-04 18:58 | -19.48253 | -176.78650 | 35962 ft | 476 kts | 209° |
| 2026-05-04 18:59 | -19.54399 | -176.81169 | 35966 ft | 477 kts | 209° |
| 2026-05-04 18:59 | -19.60590 | -176.83706 | 35966 ft | 477 kts | 209° |
| 2026-05-04 19:00 | -19.66788 | -176.86250 | 35971 ft | 477 kts | 209° |
| 2026-05-04 19:00 | -19.72977 | -176.88797 | 35971 ft | 477 kts | 209° |
| 2026-05-04 19:01 | -19.79162 | -176.91344 | 35982 ft | 477 kts | 209° |
| 2026-05-04 19:01 | -19.85347 | -176.93890 | 35976 ft | 477 kts | 209° |
| 2026-05-04 19:02 | -19.91524 | -176.96434 | 35979 ft | 475 kts | 208° |
| 2026-05-04 19:02 | -19.97683 | -176.98971 | 35979 ft | 474 kts | 208° |
| 2026-05-04 19:03 | -20.03836 | -177.01427 | 35980 ft | 475 kts | 207° |
| 2026-05-04 19:03 | -20.10055 | -177.03822 | 35982 ft | 476 kts | 207° |
| 2026-05-04 19:04 | -20.16283 | -177.06213 | 35983 ft | 475 kts | 207° |
| 2026-05-04 19:04 | -20.22489 | -177.08605 | 35987 ft | 474 kts | 207° |
| 2026-05-04 19:05 | -20.28696 | -177.11004 | 35987 ft | 474 kts | 207° |
| 2026-05-04 19:05 | -20.34909 | -177.13408 | 35990 ft | 474 kts | 207° |
| 2026-05-04 19:06 | -20.41113 | -177.15811 | 35993 ft | 474 kts | 207° |
| 2026-05-04 19:06 | -20.47314 | -177.18213 | 36002 ft | 474 kts | 207° |
| 2026-05-04 19:07 | -20.53513 | -177.20617 | 35996 ft | 474 kts | 207° |
| 2026-05-04 19:07 | -20.59706 | -177.23022 | 35998 ft | 474 kts | 207° |
| 2026-05-04 19:08 | -20.65883 | -177.25422 | 35999 ft | 474 kts | 207° |
| 2026-05-04 19:08 | -20.72076 | -177.27830 | 36001 ft | 474 kts | 207° |
| 2026-05-04 19:09 | -20.78269 | -177.30241 | 36002 ft | 473 kts | 207° |
| 2026-05-04 19:09 | -20.84428 | -177.32644 | 36001 ft | 470 kts | 207° |
| 2026-05-04 19:10 | -20.90508 | -177.35019 | 36000 ft | 460 kts | 205° |
| 2026-05-04 19:10 | -20.96477 | -177.37348 | 36010 ft | 459 kts | 206° |
| 2026-05-04 19:11 | -21.02474 | -177.39691 | 36007 ft | 459 kts | 206° |
| 2026-05-04 19:11 | -21.08472 | -177.42037 | 36015 ft | 459 kts | 206° |
| 2026-05-04 19:12 | -21.17428 | -177.45540 | 36012 ft | 453 kts | 205° |
| 2026-05-04 19:13 | -21.23353 | -177.47860 | 36018 ft | 453 kts | 205° |
| 2026-05-04 19:13 | -21.29266 | -177.50180 | 36014 ft | 453 kts | 205° |
| 2026-05-04 19:14 | -21.35180 | -177.52501 | 36022 ft | 453 kts | 205° |
| 2026-05-04 19:14 | -21.41097 | -177.54825 | 36025 ft | 452 kts | 205° |
| 2026-05-04 19:15 | -21.47009 | -177.57149 | 36025 ft | 452 kts | 205° |
| 2026-05-04 19:15 | -21.52922 | -177.59475 | 36028 ft | 452 kts | 205° |
| 2026-05-04 19:16 | -21.58830 | -177.61804 | 36035 ft | 452 kts | 205° |
| 2026-05-04 19:16 | -21.64739 | -177.64139 | 36034 ft | 452 kts | 205° |
| 2026-05-04 19:17 | -21.70647 | -177.66471 | 36026 ft | 452 kts | 205° |
| 2026-05-04 19:17 | -21.76525 | -177.68793 | 36033 ft | 453 kts | 205° |
| 2026-05-04 19:18 | -21.82417 | -177.71120 | 36056 ft | 449 kts | 204° |
| 2026-05-04 19:18 | -21.88264 | -177.73427 | 36038 ft | 446 kts | 204° |
| 2026-05-04 19:19 | -21.94094 | -177.75738 | 36040 ft | 446 kts | 204° |
| 2026-05-04 19:19 | -21.99923 | -177.78052 | 36039 ft | 447 kts | 204° |
| 2026-05-04 19:20 | -22.05760 | -177.80366 | 36047 ft | 446 kts | 204° |
| 2026-05-04 19:20 | -22.11552 | -177.82664 | 36049 ft | 447 kts | 204° |
| 2026-05-04 19:21 | -22.17375 | -177.84977 | 36046 ft | 446 kts | 204° |
| 2026-05-04 19:21 | -22.23195 | -177.87290 | 36051 ft | 446 kts | 204° |
| 2026-05-04 19:22 | -22.29014 | -177.89605 | 36050 ft | 445 kts | 204° |
| 2026-05-04 19:22 | -22.34825 | -177.91913 | 36056 ft | 444 kts | 204° |
| 2026-05-04 19:23 | -22.40617 | -177.94232 | 36055 ft | 444 kts | 205° |
| 2026-05-04 19:23 | -22.46402 | -177.96556 | 36071 ft | 444 kts | 205° |
| 2026-05-04 19:24 | -22.52204 | -177.98867 | 36057 ft | 443 kts | 204° |
| 2026-05-04 19:24 | -22.57987 | -178.01167 | 36065 ft | 442 kts | 202° |
| 2026-05-04 19:25 | -22.62773 | -178.03082 | 36066 ft | 441 kts | 203° |
| 2026-05-04 19:25 | -22.68527 | -178.05392 | 36064 ft | 441 kts | 203° |
| 2026-05-04 19:26 | -22.74289 | -178.07712 | 36067 ft | 443 kts | 204° |
| 2026-05-04 19:26 | -22.80065 | -178.10023 | 36081 ft | 439 kts | 205° |
| 2026-05-04 19:27 | -22.85791 | -178.12326 | 36080 ft | 439 kts | 203° |
| 2026-05-04 19:27 | -22.91514 | -178.14605 | 36081 ft | 438 kts | 202° |
| 2026-05-04 19:28 | -22.97218 | -178.16920 | 36081 ft | 438 kts | 205° |
| 2026-05-04 19:28 | -23.02935 | -178.19225 | 36087 ft | 438 kts | 204° |
| 2026-05-04 19:29 | -23.08656 | -178.21514 | 36073 ft | 437 kts | 204° |
| 2026-05-04 19:29 | -23.14373 | -178.23835 | 36081 ft | 440 kts | 204° |
| 2026-05-04 19:30 | -23.20068 | -178.26117 | 36096 ft | 438 kts | 203° |
| 2026-05-04 19:30 | -23.25784 | -178.28446 | 36099 ft | 439 kts | 205° |
| 2026-05-04 19:31 | -23.31523 | -178.30756 | 36088 ft | 438 kts | 205° |
| 2026-05-04 19:31 | -23.37241 | -178.33071 | 36099 ft | 438 kts | 203° |
| 2026-05-04 19:32 | -23.42948 | -178.35388 | 36104 ft | 438 kts | 203° |
| 2026-05-04 19:32 | -23.48675 | -178.37728 | 36108 ft | 442 kts | 203° |
| 2026-05-04 19:33 | -23.54448 | -178.40067 | 36103 ft | 442 kts | 203° |
| 2026-05-04 19:33 | -23.60206 | -178.42397 | 36108 ft | 442 kts | 202° |
| 2026-05-04 19:34 | -23.65939 | -178.44734 | 36114 ft | 443 kts | 205° |
| 2026-05-04 19:34 | -23.71728 | -178.47093 | 36110 ft | 444 kts | 205° |
| 2026-05-04 19:35 | -23.77513 | -178.49441 | 36121 ft | 443 kts | 205° |
| 2026-05-04 19:35 | -23.83284 | -178.51788 | 36119 ft | 442 kts | 203° |
| 2026-05-04 19:36 | -23.89047 | -178.54151 | 36124 ft | 444 kts | 205° |
| 2026-05-04 19:36 | -23.94815 | -178.56501 | 36124 ft | 441 kts | 203° |
| 2026-05-04 19:37 | -24.00575 | -178.58875 | 36130 ft | 443 kts | 203° |
| 2026-05-04 19:37 | -24.06330 | -178.61226 | 36135 ft | 441 kts | 205° |
| 2026-05-04 19:38 | -24.12103 | -178.63601 | 36129 ft | 443 kts | 203° |
| 2026-05-04 19:38 | -24.17864 | -178.65958 | 36135 ft | 444 kts | 204° |
| 2026-05-04 19:39 | -24.23640 | -178.68334 | 36134 ft | 444 kts | 205° |
| 2026-05-04 19:39 | -24.29445 | -178.70719 | 36143 ft | 446 kts | 205° |
| 2026-05-04 19:40 | -24.35229 | -178.73089 | 36144 ft | 443 kts | 203° |
| 2026-05-04 19:40 | -24.40996 | -178.75476 | 36152 ft | 444 kts | 203° |
| 2026-05-04 19:41 | -24.46782 | -178.77854 | 36145 ft | 442 kts | 203° |
| 2026-05-04 19:41 | -24.52538 | -178.80225 | 36154 ft | 442 kts | 204° |
| 2026-05-04 19:42 | -24.58303 | -178.82612 | 36154 ft | 444 kts | 205° |
| 2026-05-04 19:42 | -24.64048 | -178.84986 | 36160 ft | 443 kts | 203° |
| 2026-05-04 19:43 | -24.69830 | -178.87385 | 36165 ft | 446 kts | 204° |
| 2026-05-04 19:43 | -24.75630 | -178.89791 | 36160 ft | 446 kts | 204° |
| 2026-05-04 19:44 | -24.81440 | -178.92195 | 36167 ft | 444 kts | 205° |
| 2026-05-04 19:44 | -24.87223 | -178.94604 | 36165 ft | 446 kts | 205° |
| 2026-05-04 19:45 | -24.93016 | -178.97010 | 36164 ft | 444 kts | 203° |
| 2026-05-04 19:45 | -24.98788 | -178.99404 | 36164 ft | 442 kts | 203° |
| 2026-05-04 19:46 | -25.04610 | -179.01716 | 36169 ft | 448 kts | 202° |
| 2026-05-04 19:46 | -25.10483 | -179.03955 | 36168 ft | 446 kts | 202° |
| 2026-05-04 19:47 | -25.16340 | -179.06202 | 36173 ft | 450 kts | 203° |
| 2026-05-04 19:47 | -25.22234 | -179.08460 | 36175 ft | 447 kts | 202° |
| 2026-05-04 19:48 | -25.28107 | -179.10725 | 36181 ft | 448 kts | 201° |
| 2026-05-04 19:48 | -25.33969 | -179.12979 | 36185 ft | 446 kts | 203° |
| 2026-05-04 19:49 | -25.39833 | -179.15245 | 36180 ft | 447 kts | 202° |
| 2026-05-04 19:49 | -25.45712 | -179.17516 | 36180 ft | 446 kts | 203° |
| 2026-05-04 19:50 | -25.51592 | -179.19796 | 36192 ft | 449 kts | 203° |
| 2026-05-04 19:50 | -25.57503 | -179.22081 | 36191 ft | 448 kts | 202° |
| 2026-05-04 19:51 | -25.63383 | -179.24357 | 36195 ft | 448 kts | 203° |
| 2026-05-04 19:51 | -25.69255 | -179.26634 | 36198 ft | 445 kts | 201° |
| 2026-05-04 19:52 | -25.75110 | -179.28912 | 36196 ft | 447 kts | 202° |
| 2026-05-04 19:52 | -25.80991 | -179.31202 | 36198 ft | 447 kts | 202° |
| 2026-05-04 19:53 | -25.86872 | -179.33498 | 36200 ft | 447 kts | 202° |
| 2026-05-04 19:53 | -25.92753 | -179.35790 | 36206 ft | 447 kts | 201° |
| 2026-05-04 19:54 | -25.98631 | -179.38083 | 36209 ft | 447 kts | 201° |
| 2026-05-04 19:54 | -26.04488 | -179.40368 | 36208 ft | 445 kts | 201° |
| 2026-05-04 19:55 | -26.10350 | -179.42664 | 36213 ft | 447 kts | 201° |
| 2026-05-04 19:55 | -26.16219 | -179.44959 | 36213 ft | 449 kts | 202° |
| 2026-05-04 19:56 | -26.22109 | -179.47266 | 36216 ft | 448 kts | 202° |
| 2026-05-04 19:56 | -26.27984 | -179.49569 | 36224 ft | 448 kts | 202° |
| 2026-05-04 19:57 | -26.33818 | -179.51859 | 36222 ft | 447 kts | 202° |
| 2026-05-04 19:57 | -26.39679 | -179.54164 | 36225 ft | 448 kts | 203° |
| 2026-05-04 19:58 | -26.45554 | -179.56475 | 36225 ft | 448 kts | 201° |
| 2026-05-04 19:58 | -26.51441 | -179.58794 | 36233 ft | 450 kts | 202° |
| 2026-05-04 19:59 | -26.57321 | -179.61109 | 36242 ft | 447 kts | 202° |
| 2026-05-04 19:59 | -26.63188 | -179.63432 | 36234 ft | 446 kts | 202° |
| 2026-05-04 20:00 | -26.69046 | -179.65751 | 36232 ft | 447 kts | 203° |
| 2026-05-04 20:00 | -26.74918 | -179.68075 | 36241 ft | 448 kts | 203° |
| 2026-05-04 20:01 | -26.80812 | -179.70412 | 36243 ft | 448 kts | 203° |
| 2026-05-04 20:01 | -26.86688 | -179.72740 | 36238 ft | 448 kts | 203° |
| 2026-05-04 20:02 | -26.92527 | -179.75056 | 36245 ft | 447 kts | 202° |
| 2026-05-04 20:02 | -26.98382 | -179.77382 | 36242 ft | 447 kts | 203° |
| 2026-05-04 20:03 | -27.04254 | -179.79718 | 36256 ft | 448 kts | 203° |
| 2026-05-04 20:03 | -27.10137 | -179.82061 | 36252 ft | 448 kts | 203° |
| 2026-05-04 20:04 | -27.16013 | -179.84402 | 36256 ft | 448 kts | 202° |
| 2026-05-04 20:04 | -27.21888 | -179.86744 | 36251 ft | 447 kts | 202° |
| 2026-05-04 20:05 | -27.27711 | -179.89072 | 36260 ft | 447 kts | 203° |
| 2026-05-04 20:05 | -27.33576 | -179.91418 | 36252 ft | 448 kts | 203° |
| 2026-05-04 20:05 | -27.36522 | -179.92599 | 36484 ft | 448 kts | 202° |
| 2026-05-04 20:06 | -27.39452 | -179.93774 | 36886 ft | 446 kts | 203° |
| 2026-05-04 20:06 | -27.42367 | -179.94945 | 37275 ft | 444 kts | 203° |
| 2026-05-04 20:06 | -27.45264 | -179.96109 | 37669 ft | 441 kts | 203° |
| 2026-05-04 20:06 | -27.48141 | -179.97263 | 38080 ft | 437 kts | 203° |
| 2026-05-04 20:07 | -27.51015 | -179.98419 | 38232 ft | 440 kts | 204° |
| 2026-05-04 20:07 | -27.56789 | 179.99260 | 38263 ft | 440 kts | 203° |
| 2026-05-04 20:08 | -27.62563 | 179.96937 | 38267 ft | 441 kts | 204° |
| 2026-05-04 20:08 | -27.68333 | 179.94612 | 38271 ft | 441 kts | 203° |
| 2026-05-04 20:09 | -27.74118 | 179.92281 | 38273 ft | 441 kts | 204° |
| 2026-05-04 20:09 | -27.79902 | 179.89946 | 38275 ft | 441 kts | 202° |
| 2026-05-04 20:10 | -27.85680 | 179.87611 | 38281 ft | 441 kts | 204° |
| 2026-05-04 20:10 | -27.91459 | 179.85273 | 38283 ft | 441 kts | 203° |
| 2026-05-04 20:11 | -27.97198 | 179.82950 | 38276 ft | 441 kts | 204° |
| 2026-05-04 20:11 | -28.02971 | 179.80610 | 38277 ft | 441 kts | 203° |
| 2026-05-04 20:12 | -28.08745 | 179.78267 | 38280 ft | 440 kts | 203° |
| 2026-05-04 20:12 | -28.14497 | 179.75929 | 38284 ft | 439 kts | 204° |
| 2026-05-04 20:13 | -28.20250 | 179.73580 | 38290 ft | 439 kts | 203° |
| 2026-05-04 20:13 | -28.25026 | 179.71630 | 38285 ft | 439 kts | 203° |
| 2026-05-04 20:14 | -28.30774 | 179.69285 | 38289 ft | 439 kts | 204° |
| 2026-05-04 20:14 | -28.36422 | 179.66698 | 38288 ft | 439 kts | 203° |
| 2026-05-04 20:15 | -28.42205 | 179.64462 | 38294 ft | 439 kts | 202° |
| 2026-05-04 20:15 | -28.47979 | 179.62222 | 38295 ft | 438 kts | 203° |
| 2026-05-04 20:16 | -28.53720 | 179.59908 | 38299 ft | 437 kts | 203° |
| 2026-05-04 20:16 | -28.59446 | 179.57561 | 38299 ft | 438 kts | 203° |
| 2026-05-04 20:16 | -28.62307 | 179.56386 | 38525 ft | 437 kts | 203° |
| 2026-05-04 20:17 | -28.65168 | 179.55210 | 38767 ft | 437 kts | 203° |
| 2026-05-04 20:17 | -28.68021 | 179.54037 | 39003 ft | 437 kts | 203° |
| 2026-05-04 20:17 | -28.70877 | 179.52863 | 39201 ft | 436 kts | 203° |
| 2026-05-04 20:17 | -28.73731 | 179.51689 | 39385 ft | 436 kts | 203° |
| 2026-05-04 20:18 | -28.76582 | 179.50516 | 39562 ft | 435 kts | 203° |
| 2026-05-04 20:18 | -28.79433 | 179.49341 | 39732 ft | 435 kts | 203° |
| 2026-05-04 20:18 | -28.82277 | 179.48170 | 39920 ft | 434 kts | 204° |
| 2026-05-04 20:18 | -28.85120 | 179.46997 | 40088 ft | 434 kts | 203° |
| 2026-05-04 20:19 | -28.87951 | 179.45829 | 40257 ft | 434 kts | 203° |
| 2026-05-04 20:19 | -28.93631 | 179.43481 | 40307 ft | 433 kts | 204° |
| 2026-05-04 20:20 | -28.99305 | 179.41127 | 40312 ft | 434 kts | 203° |
| 2026-05-04 20:20 | -29.04990 | 179.38770 | 40315 ft | 435 kts | 204° |
| 2026-05-04 20:21 | -29.10674 | 179.36414 | 40316 ft | 435 kts | 203° |
| 2026-05-04 20:21 | -29.19200 | 179.32877 | 40320 ft | 434 kts | 204° |
| 2026-05-04 20:22 | -29.24852 | 179.30528 | 40335 ft | 435 kts | 203° |
| 2026-05-04 20:22 | -29.30532 | 179.28165 | 40325 ft | 435 kts | 204° |
| 2026-05-04 20:23 | -29.36208 | 179.25801 | 40324 ft | 435 kts | 203° |
| 2026-05-04 20:23 | -29.41892 | 179.23430 | 40332 ft | 435 kts | 204° |
| 2026-05-04 20:24 | -29.47562 | 179.21062 | 40327 ft | 433 kts | 203° |
| 2026-05-04 20:24 | -29.53227 | 179.18694 | 40334 ft | 433 kts | 204° |
| 2026-05-04 20:25 | -29.58870 | 179.16333 | 40333 ft | 431 kts | 203° |
| 2026-05-04 20:25 | -29.64495 | 179.13976 | 40337 ft | 430 kts | 204° |
| 2026-05-04 20:26 | -29.70119 | 179.11616 | 40337 ft | 430 kts | 203° |
| 2026-05-04 20:26 | -29.75739 | 179.09248 | 40340 ft | 430 kts | 204° |
| 2026-05-04 20:27 | -29.81319 | 179.06894 | 40337 ft | 430 kts | 204° |
| 2026-05-04 20:27 | -29.86966 | 179.04514 | 40342 ft | 429 kts | 204° |
| 2026-05-04 20:28 | -29.92570 | 179.02152 | 40351 ft | 429 kts | 204° |
| 2026-05-04 20:28 | -29.98171 | 178.99788 | 40349 ft | 429 kts | 204° |
| 2026-05-04 20:29 | -30.03737 | 178.97437 | 40345 ft | 429 kts | 204° |
| 2026-05-04 20:29 | -30.09341 | 178.95066 | 40354 ft | 429 kts | 204° |
| 2026-05-04 20:30 | -30.14933 | 178.92697 | 40357 ft | 428 kts | 204° |
| 2026-05-04 20:30 | -30.20492 | 178.90261 | 40364 ft | 426 kts | 207° |
| 2026-05-04 20:31 | -30.25899 | 178.87457 | 40353 ft | 425 kts | 208° |
| 2026-05-04 20:31 | -30.31258 | 178.84560 | 40361 ft | 425 kts | 209° |
| 2026-05-04 20:32 | -30.36627 | 178.81671 | 40360 ft | 425 kts | 208° |
| 2026-05-04 20:32 | -30.42002 | 178.78792 | 40371 ft | 426 kts | 208° |
| 2026-05-04 20:33 | -30.47383 | 178.75912 | 40369 ft | 426 kts | 208° |
| 2026-05-04 20:33 | -30.52762 | 178.73030 | 40365 ft | 426 kts | 208° |
| 2026-05-04 20:34 | -30.58142 | 178.70145 | 40376 ft | 426 kts | 208° |
| 2026-05-04 20:34 | -30.63521 | 178.67256 | 40362 ft | 426 kts | 208° |
| 2026-05-04 20:35 | -30.68897 | 178.64365 | 40374 ft | 426 kts | 208° |
| 2026-05-04 20:35 | -30.74279 | 178.61468 | 40379 ft | 426 kts | 208° |
| 2026-05-04 20:36 | -30.79655 | 178.58569 | 40365 ft | 426 kts | 208° |
| 2026-05-04 20:36 | -30.85029 | 178.55669 | 40366 ft | 426 kts | 208° |
| 2026-05-04 20:37 | -30.90401 | 178.52766 | 40382 ft | 426 kts | 208° |
| 2026-05-04 20:37 | -30.95778 | 178.49855 | 40381 ft | 426 kts | 208° |
| 2026-05-04 20:38 | -31.01103 | 178.46957 | 40392 ft | 426 kts | 208° |
| 2026-05-04 20:38 | -31.06484 | 178.44031 | 40378 ft | 426 kts | 208° |
| 2026-05-04 20:39 | -31.11863 | 178.41109 | 40381 ft | 426 kts | 208° |
| 2026-05-04 20:39 | -31.17242 | 178.38184 | 40381 ft | 426 kts | 208° |
| 2026-05-04 20:40 | -31.22618 | 178.35256 | 40383 ft | 426 kts | 208° |
| 2026-05-04 20:40 | -31.27993 | 178.32325 | 40384 ft | 426 kts | 208° |
| 2026-05-04 20:41 | -31.33369 | 178.29391 | 40389 ft | 426 kts | 208° |
| 2026-05-04 20:41 | -31.38742 | 178.26454 | 40390 ft | 426 kts | 208° |
| 2026-05-04 20:42 | -31.44116 | 178.23513 | 40392 ft | 426 kts | 208° |
| 2026-05-04 20:42 | -31.49488 | 178.20570 | 40393 ft | 426 kts | 208° |
| 2026-05-04 20:43 | -31.54858 | 178.17623 | 40396 ft | 426 kts | 208° |
| 2026-05-04 20:43 | -31.60226 | 178.14675 | 40395 ft | 426 kts | 208° |
| 2026-05-04 20:44 | -31.65596 | 178.11721 | 40400 ft | 426 kts | 208° |
| 2026-05-04 20:44 | -31.70963 | 178.08763 | 40414 ft | 426 kts | 208° |
| 2026-05-04 20:45 | -31.76310 | 178.05802 | 40403 ft | 424 kts | 208° |
| 2026-05-04 20:45 | -31.81647 | 178.02847 | 40406 ft | 424 kts | 208° |
| 2026-05-04 20:46 | -31.86983 | 177.99894 | 40400 ft | 424 kts | 208° |
| 2026-05-04 20:46 | -31.92282 | 177.96961 | 40401 ft | 424 kts | 208° |
| 2026-05-04 20:47 | -31.97616 | 177.94004 | 40406 ft | 424 kts | 208° |
| 2026-05-04 20:47 | -32.02951 | 177.91043 | 40409 ft | 424 kts | 208° |
| 2026-05-04 20:48 | -32.08285 | 177.88079 | 40411 ft | 424 kts | 208° |
| 2026-05-04 20:48 | -32.13624 | 177.85108 | 40413 ft | 424 kts | 208° |
| 2026-05-04 20:49 | -32.18963 | 177.82133 | 40415 ft | 424 kts | 208° |
| 2026-05-04 20:49 | -32.24012 | 177.79315 | 40414 ft | 424 kts | 208° |
| 2026-05-04 20:50 | -32.29357 | 177.76330 | 40423 ft | 424 kts | 208° |
| 2026-05-04 20:50 | -32.34695 | 177.73345 | 40422 ft | 425 kts | 208° |
| 2026-05-04 20:51 | -32.40046 | 177.70347 | 40434 ft | 425 kts | 208° |
| 2026-05-04 20:51 | -32.45383 | 177.67354 | 40425 ft | 424 kts | 208° |
| 2026-05-04 20:52 | -32.50709 | 177.64351 | 40424 ft | 424 kts | 208° |
| 2026-05-04 20:52 | -32.56040 | 177.61344 | 40425 ft | 424 kts | 208° |
| 2026-05-04 20:53 | -32.61325 | 177.58365 | 40435 ft | 424 kts | 208° |
| 2026-05-04 20:53 | -32.66663 | 177.55355 | 40428 ft | 425 kts | 208° |
| 2026-05-04 20:54 | -32.72001 | 177.52341 | 40432 ft | 425 kts | 208° |
| 2026-05-04 20:54 | -32.77338 | 177.49324 | 40433 ft | 425 kts | 208° |
| 2026-05-04 20:55 | -32.82679 | 177.46301 | 40438 ft | 425 kts | 208° |
| 2026-05-04 20:55 | -32.88015 | 177.43276 | 40441 ft | 425 kts | 208° |
| 2026-05-04 20:56 | -32.93359 | 177.40242 | 40438 ft | 426 kts | 208° |
| 2026-05-04 20:56 | -32.98705 | 177.37204 | 40440 ft | 426 kts | 208° |
| 2026-05-04 20:57 | -33.04031 | 177.34174 | 39678 ft | 424 kts | 208° |
| 2026-05-04 20:57 | -33.06698 | 177.32654 | 38886 ft | 425 kts | 208° |
| 2026-05-04 20:57 | -33.09371 | 177.31130 | 37935 ft | 426 kts | 209° |
| 2026-05-04 20:58 | -33.12049 | 177.29602 | 36946 ft | 428 kts | 209° |
| 2026-05-04 20:58 | -33.14748 | 177.28061 | 35986 ft | 431 kts | 209° |
| 2026-05-04 20:58 | -33.17460 | 177.26511 | 35017 ft | 434 kts | 209° |
| 2026-05-04 20:58 | -33.20197 | 177.24946 | 33993 ft | 437 kts | 209° |
| 2026-05-04 20:59 | -33.22920 | 177.23385 | 33520 ft | 432 kts | 209° |
| 2026-05-04 20:59 | -33.25634 | 177.21822 | 33268 ft | 441 kts | 209° |
| 2026-05-04 20:59 | -33.28400 | 177.20231 | 33008 ft | 443 kts | 208° |
| 2026-05-04 20:59 | -33.31181 | 177.18632 | 32750 ft | 444 kts | 208° |
| 2026-05-04 21:00 | -33.33965 | 177.17034 | 32530 ft | 444 kts | 208° |
| 2026-05-04 21:00 | -33.36754 | 177.15433 | 32473 ft | 445 kts | 208° |
| 2026-05-04 21:00 | -33.42341 | 177.12223 | 32464 ft | 445 kts | 208° |
| 2026-05-04 21:01 | -33.47928 | 177.09009 | 32455 ft | 445 kts | 208° |
| 2026-05-04 21:01 | -33.53514 | 177.05789 | 32460 ft | 445 kts | 208° |
| 2026-05-04 21:02 | -33.59097 | 177.02567 | 32451 ft | 445 kts | 208° |
| 2026-05-04 21:02 | -33.64680 | 176.99340 | 32456 ft | 445 kts | 208° |
| 2026-05-04 21:03 | -33.70275 | 176.96101 | 32452 ft | 446 kts | 208° |
| 2026-05-04 21:03 | -33.75827 | 176.92884 | 32463 ft | 446 kts | 208° |
| 2026-05-04 21:04 | -33.81411 | 176.89642 | 32463 ft | 446 kts | 208° |
| 2026-05-04 21:04 | -33.86994 | 176.86396 | 32462 ft | 446 kts | 208° |
| 2026-05-04 21:05 | -33.92573 | 176.83147 | 32469 ft | 446 kts | 208° |
| 2026-05-04 21:05 | -33.98158 | 176.79886 | 32466 ft | 446 kts | 208° |
| 2026-05-04 21:06 | -34.03732 | 176.76616 | 32466 ft | 446 kts | 208° |
| 2026-05-04 21:06 | -34.09316 | 176.73367 | 32468 ft | 446 kts | 208° |
| 2026-05-04 21:07 | -34.14916 | 176.70147 | 32468 ft | 446 kts | 207° |
| 2026-05-04 21:07 | -34.20518 | 176.66929 | 32474 ft | 446 kts | 208° |
| 2026-05-04 21:08 | -34.26102 | 176.63713 | 32465 ft | 446 kts | 208° |
| 2026-05-04 21:08 | -34.31664 | 176.60505 | 32473 ft | 446 kts | 208° |
| 2026-05-04 21:09 | -34.37258 | 176.57272 | 32471 ft | 446 kts | 208° |
| 2026-05-04 21:09 | -34.42854 | 176.54034 | 32484 ft | 446 kts | 208° |
| 2026-05-04 21:10 | -34.48448 | 176.50792 | 32482 ft | 446 kts | 208° |
| 2026-05-04 21:10 | -34.54045 | 176.47544 | 32476 ft | 446 kts | 208° |
| 2026-05-04 21:11 | -34.59638 | 176.44292 | 32476 ft | 446 kts | 208° |
| 2026-05-04 21:11 | -34.65230 | 176.41037 | 32476 ft | 446 kts | 208° |
| 2026-05-04 21:12 | -34.70822 | 176.37776 | 32482 ft | 446 kts | 208° |
| 2026-05-04 21:12 | -34.76417 | 176.34509 | 32479 ft | 446 kts | 208° |
| 2026-05-04 21:13 | -34.81988 | 176.31249 | 32484 ft | 446 kts | 208° |
| 2026-05-04 21:13 | -34.87573 | 176.27962 | 32484 ft | 446 kts | 209° |
| 2026-05-04 21:14 | -34.92216 | 176.25231 | 32488 ft | 446 kts | 208° |
| 2026-05-04 21:14 | -34.98697 | 176.21423 | 32490 ft | 443 kts | 209° |
| 2026-05-04 21:15 | -35.01480 | 176.19786 | 32364 ft | 443 kts | 209° |
| 2026-05-04 21:15 | -35.04241 | 176.18162 | 31583 ft | 438 kts | 209° |
| 2026-05-04 21:15 | -35.06995 | 176.16540 | 31281 ft | 444 kts | 209° |
| 2026-05-04 21:15 | -35.09780 | 176.14895 | 31151 ft | 444 kts | 209° |
| 2026-05-04 21:16 | -35.11609 | 176.13818 | 31023 ft | 441 kts | 209° |
| 2026-05-04 21:16 | -35.14405 | 176.12166 | 30880 ft | 448 kts | 209° |
| 2026-05-04 21:16 | -35.17219 | 176.10503 | 30697 ft | 450 kts | 209° |
| 2026-05-04 21:16 | -35.20042 | 176.08835 | 30525 ft | 450 kts | 209° |
| 2026-05-04 21:17 | -35.22861 | 176.07168 | 30313 ft | 450 kts | 209° |
| 2026-05-04 21:17 | -35.25678 | 176.05500 | 30113 ft | 450 kts | 209° |
| 2026-05-04 21:17 | -35.28500 | 176.03829 | 29903 ft | 450 kts | 209° |
| 2026-05-04 21:17 | -35.31320 | 176.02157 | 29694 ft | 451 kts | 209° |
| 2026-05-04 21:18 | -35.34146 | 176.00480 | 29493 ft | 451 kts | 209° |
| 2026-05-04 21:18 | -35.36967 | 175.98804 | 29282 ft | 451 kts | 209° |
| 2026-05-04 21:18 | -35.39791 | 175.97126 | 29078 ft | 451 kts | 209° |
| 2026-05-04 21:18 | -35.42619 | 175.95444 | 28880 ft | 452 kts | 209° |
| 2026-05-04 21:19 | -35.45446 | 175.93761 | 28690 ft | 451 kts | 208° |
| 2026-05-04 21:19 | -35.48232 | 175.92101 | 28495 ft | 451 kts | 208° |
| 2026-05-04 21:19 | -35.51093 | 175.90396 | 28299 ft | 451 kts | 208° |
| 2026-05-04 21:19 | -35.53917 | 175.88711 | 28104 ft | 451 kts | 208° |
| 2026-05-04 21:20 | -35.56704 | 175.87044 | 27908 ft | 452 kts | 208° |
| 2026-05-04 21:20 | -35.59531 | 175.85346 | 27719 ft | 452 kts | 208° |
| 2026-05-04 21:20 | -35.62354 | 175.83650 | 27531 ft | 452 kts | 208° |
| 2026-05-04 21:20 | -35.65184 | 175.81950 | 27340 ft | 453 kts | 208° |
| 2026-05-04 21:21 | -35.68017 | 175.80249 | 27161 ft | 453 kts | 208° |
| 2026-05-04 21:21 | -35.70854 | 175.78547 | 26979 ft | 455 kts | 207° |
| 2026-05-04 21:21 | -35.73701 | 175.76839 | 26792 ft | 455 kts | 207° |
| 2026-05-04 21:21 | -35.76554 | 175.75125 | 26607 ft | 456 kts | 207° |
| 2026-05-04 21:22 | -35.79406 | 175.73411 | 26420 ft | 456 kts | 207° |
| 2026-05-04 21:22 | -35.82263 | 175.71693 | 26036 ft | 457 kts | 207° |
| 2026-05-04 21:22 | -35.85119 | 175.69974 | 25654 ft | 457 kts | 207° |
| 2026-05-04 21:22 | -35.87981 | 175.68250 | 25254 ft | 459 kts | 207° |
| 2026-05-04 21:23 | -35.90848 | 175.66522 | 24736 ft | 458 kts | 207° |
| 2026-05-04 21:23 | -35.93690 | 175.64807 | 24152 ft | 455 kts | 207° |
| 2026-05-04 21:23 | -35.96519 | 175.63099 | 23448 ft | 451 kts | 207° |
| 2026-05-04 21:23 | -35.99324 | 175.61404 | 22772 ft | 447 kts | 207° |
| 2026-05-04 21:24 | -36.02102 | 175.59724 | 22130 ft | 443 kts | 207° |
| 2026-05-04 21:24 | -36.04862 | 175.58053 | 21500 ft | 439 kts | 207° |
| 2026-05-04 21:24 | -36.07560 | 175.56419 | 20889 ft | 435 kts | 207° |
| 2026-05-04 21:24 | -36.10263 | 175.54779 | 20279 ft | 431 kts | 207° |
| 2026-05-04 21:25 | -36.12936 | 175.53157 | 19668 ft | 428 kts | 206° |
| 2026-05-04 21:25 | -36.15601 | 175.51539 | 19056 ft | 425 kts | 206° |
| 2026-05-04 21:25 | -36.18239 | 175.49935 | 18421 ft | 421 kts | 206° |
| 2026-05-04 21:25 | -36.20855 | 175.48345 | 17788 ft | 417 kts | 206° |
| 2026-05-04 21:26 | -36.23446 | 175.46767 | 17172 ft | 412 kts | 206° |
| 2026-05-04 21:26 | -36.26008 | 175.45207 | 16596 ft | 409 kts | 206° |
| 2026-05-04 21:26 | -36.28552 | 175.43656 | 16037 ft | 406 kts | 206° |
| 2026-05-04 21:26 | -36.31071 | 175.42119 | 15485 ft | 402 kts | 206° |
| 2026-05-04 21:27 | -36.33566 | 175.40590 | 14930 ft | 398 kts | 206° |
| 2026-05-04 21:27 | -36.36041 | 175.39069 | 14375 ft | 395 kts | 206° |
| 2026-05-04 21:27 | -36.38494 | 175.37562 | 13788 ft | 392 kts | 206° |
| 2026-05-04 21:27 | -36.40934 | 175.36065 | 13235 ft | 389 kts | 206° |
| 2026-05-04 21:28 | -36.43347 | 175.34586 | 12679 ft | 385 kts | 206° |
| 2026-05-04 21:28 | -36.45745 | 175.33116 | 12175 ft | 383 kts | 206° |
| 2026-05-04 21:28 | -36.48125 | 175.31656 | 11802 ft | 380 kts | 206° |
| 2026-05-04 21:28 | -36.50479 | 175.30212 | 11626 ft | 369 kts | 206° |
| 2026-05-04 21:29 | -36.52713 | 175.28840 | 11521 ft | 348 kts | 206° |
| 2026-05-04 21:29 | -36.54830 | 175.27540 | 11405 ft | 331 kts | 206° |
| 2026-05-04 21:29 | -36.56845 | 175.26300 | 11285 ft | 315 kts | 206° |
| 2026-05-04 21:29 | -36.58770 | 175.25115 | 11176 ft | 304 kts | 206° |
| 2026-05-04 21:30 | -36.60631 | 175.23969 | 10960 ft | 302 kts | 206° |
| 2026-05-04 21:30 | -36.62510 | 175.22811 | 10646 ft | 299 kts | 206° |
| 2026-05-04 21:30 | -36.64371 | 175.21664 | 10537 ft | 299 kts | 206° |
| 2026-05-04 21:30 | -36.66227 | 175.20520 | 10522 ft | 297 kts | 206° |
| 2026-05-04 21:31 | -36.69919 | 175.18243 | 10517 ft | 296 kts | 206° |
| 2026-05-04 21:31 | -36.71790 | 175.17088 | 9942 ft | 304 kts | 206° |
| 2026-05-04 21:31 | -36.73703 | 175.15907 | 9233 ft | 310 kts | 206° |
| 2026-05-04 21:32 | -36.75652 | 175.14703 | 8531 ft | 315 kts | 206° |
| 2026-05-04 21:32 | -36.77633 | 175.13479 | 7821 ft | 320 kts | 206° |
| 2026-05-04 21:32 | -36.79643 | 175.12236 | 7134 ft | 324 kts | 206° |
| 2026-05-04 21:32 | -36.81671 | 175.10980 | 6441 ft | 326 kts | 206° |
| 2026-05-04 21:33 | -36.83708 | 175.09719 | 5743 ft | 327 kts | 206° |
| 2026-05-04 21:33 | -36.85743 | 175.08459 | 5135 ft | 325 kts | 206° |
| 2026-05-04 21:33 | -36.87749 | 175.07215 | 4690 ft | 317 kts | 206° |
| 2026-05-04 21:33 | -36.89673 | 175.06020 | 4308 ft | 309 kts | 206° |
| 2026-05-04 21:34 | -36.91579 | 175.04836 | 3953 ft | 303 kts | 206° |
| 2026-05-04 21:34 | -36.93410 | 175.03584 | 3753 ft | 289 kts | 215° |
| 2026-05-04 21:34 | -36.94730 | 175.01821 | 3499 ft | 278 kts | 239° |
| 2026-05-04 21:34 | -36.95472 | 174.99814 | 3188 ft | 239 kts | 252° |
| 2026-05-04 21:35 | -36.95965 | 174.97885 | 2859 ft | 224 kts | 255° |
| 2026-05-04 21:35 | -36.96422 | 174.96055 | 2584 ft | 219 kts | 253° |
| 2026-05-04 21:35 | -36.96898 | 174.94261 | 2304 ft | 217 kts | 252° |
| 2026-05-04 21:35 | -36.97623 | 174.92631 | 1854 ft | 215 kts | 225° |
| 2026-05-04 21:36 | -36.98855 | 174.91750 | 1517 ft | 193 kts | 186° |
| 2026-05-04 21:36 | -37.00203 | 174.91978 | 2124 ft | 200 kts | 150° |
| 2026-05-04 21:36 | -37.01184 | 174.93152 | 2497 ft | 196 kts | 112° |
| 2026-05-04 21:36 | -37.01399 | 174.94785 | 2861 ft | 192 kts | 78° |
| 2026-05-04 21:37 | -37.00958 | 174.96353 | 3217 ft | 193 kts | 66° |
| 2026-05-04 21:37 | -37.00423 | 174.97905 | 3601 ft | 195 kts | 64° |
| 2026-05-04 21:37 | -36.99823 | 174.99442 | 3843 ft | 198 kts | 60° |
| 2026-05-04 21:37 | -36.98981 | 175.00781 | 3925 ft | 198 kts | 37° |
| 2026-05-04 21:38 | -36.97699 | 175.01328 | 3772 ft | 200 kts | 2° |
| 2026-05-04 21:38 | -36.96358 | 175.00918 | 3396 ft | 204 kts | 335° |
| 2026-05-04 21:38 | -36.95345 | 174.99727 | 3136 ft | 208 kts | 298° |
| 2026-05-04 21:38 | -36.95227 | 174.97922 | 2920 ft | 216 kts | 255° |
| 2026-05-04 21:39 | -36.95897 | 174.96244 | 2594 ft | 217 kts | 239° |
| 2026-05-04 21:39 | -36.96694 | 174.94640 | 2406 ft | 215 kts | 239° |
| 2026-05-04 21:39 | -36.97436 | 174.92989 | 2345 ft | 221 kts | 245° |
| 2026-05-04 21:39 | -36.97983 | 174.91225 | 2224 ft | 214 kts | 256° |
| 2026-05-04 21:40 | -36.98328 | 174.89480 | 1884 ft | 202 kts | 258° |
| 2026-05-04 21:40 | -36.98650 | 174.87850 | 1413 ft | 184 kts | 255° |
| 2026-05-04 21:40 | -36.99010 | 174.86462 | 1103 ft | 159 kts | 250° |
| 2026-05-04 21:40 | -36.99380 | 174.85154 | 880 ft | 163 kts | 250° |
| 2026-05-04 21:41 | -36.99759 | 174.83808 | 674 ft | 165 kts | 249° |
| 2026-05-04 21:41 | -37.00137 | 174.82462 | 419 ft | 163 kts | 250° |
| 2026-05-04 21:41 | -37.00511 | 174.81147 | 178 ft | 159 kts | 248° |
| 2026-05-04 21:41 | -37.00854 | 174.79892 | 41 ft | 137 kts | 250° |
| 2026-05-04 21:42 | -37.01063 | 174.79072 | 38 ft | 50 kts | 263° |
| 2026-05-04 21:42 | -37.01056 | 174.78864 | 41 ft | 6 kts | 279° |
| 2026-05-04 21:42 | -37.01041 | 174.78757 | 42 ft | 18 kts | 279° |
| 2026-05-04 21:42 | -37.00999 | 174.78589 | 43 ft | 17 kts | 313° |
| 2026-05-04 21:43 | -37.00939 | 174.78589 | 43 ft | 7 kts | 49° |
| 2026-05-04 21:43 | -37.00901 | 174.78695 | 43 ft | 18 kts | 69° |
| 2026-05-04 21:43 | -37.00864 | 174.78842 | 41 ft | 17 kts | 73° |
| 2026-05-04 21:43 | -37.00822 | 174.78978 | 43 ft | 16 kts | 71° |
| 2026-05-04 21:44 | -37.00789 | 174.79107 | 43 ft | 15 kts | 72° |
| 2026-05-04 21:44 | -37.00755 | 174.79231 | 43 ft | 15 kts | 70° |
| 2026-05-04 21:44 | -37.00720 | 174.79349 | 41 ft | 14 kts | 72° |
| 2026-05-04 21:44 | -37.00691 | 174.79453 | 43 ft | 12 kts | 69° |
| 2026-05-04 21:45 | -37.00659 | 174.79569 | 42 ft | 17 kts | 71° |
| 2026-05-04 21:45 | -37.00627 | 174.79689 | 43 ft | 16 kts | 72° |
| 2026-05-04 21:45 | -37.00582 | 174.79854 | 43 ft | 24 kts | 70° |
| 2026-05-04 21:45 | -37.00508 | 174.80071 | 43 ft | 24 kts | 70° |
| 2026-05-04 21:46 | -37.00468 | 174.80164 | 43 ft | 6 kts | 33° |
| 2026-05-04 21:46 | -37.00444 | 174.80162 | 43 ft | 4 kts | 350° |
| 2026-05-04 21:46 | -37.00411 | 174.80158 | 41 ft | 5 kts | 2° |
| 2026-05-04 21:46 | -37.00397 | 174.80171 | 42 ft | 1 kts | 50° |
| 2026-05-04 21:47 | -37.00396 | 174.80176 | 43 ft | 0 kts | 64° |